WAT9580 TNCA-SAWH
Flight info
| Callsign | WAT9580 |
|---|---|
| Flight time | 8h 45m |
| Altitude | 36000 |
| Route | PJG UL339 PBL UQ235 EDPAL UL793 DAVEX UL216 SFD/N0492F380 UL216 PAY/N0496F370 UL216 AKPEP UL309 GEBIG/N0488F390 UL309 RCO UN525 CBA UW15 SIMES/N0486F400 UT700 GUDUX T108 DABLI DABLI1Q |
| Aircraft | A359/H-SDE2E3GHIJ3J4J5LM1ORWXY/LB1D1 |
Departure
| Time | 2026-04-29 07:18 |
|---|---|
| Airport | Queen Beatrix International Airport (TNCA) |
Arrival
| Time | 2026-04-29 16:04 |
|---|---|
| Airport | Ushuaia - Malvinas Argentinas International Airport (SAWH) |
| Time | Latitude | Longitude | Altitude | Speed | Heading |
|---|---|---|---|---|---|
| 2026-04-29 07:01 | 12.50262 | -70.00764 | 53 ft | 0 kts | 16° |
| 2026-04-29 07:07 | 12.50249 | -70.00767 | 49 ft | 4 kts | 11° |
| 2026-04-29 07:08 | 12.50234 | -70.00771 | 53 ft | 4 kts | 8° |
| 2026-04-29 07:08 | 12.50212 | -70.00771 | 48 ft | 4 kts | 337° |
| 2026-04-29 07:08 | 12.50194 | -70.00757 | 50 ft | 4 kts | 301° |
| 2026-04-29 07:08 | 12.50184 | -70.00736 | 53 ft | 4 kts | 284° |
| 2026-04-29 07:09 | 12.50179 | -70.00714 | 50 ft | 0 kts | 283° |
| 2026-04-29 07:12 | 12.50179 | -70.00715 | 53 ft | 0 kts | 284° |
| 2026-04-29 07:12 | 12.50188 | -70.00748 | 49 ft | 11 kts | 285° |
| 2026-04-29 07:12 | 12.50204 | -70.00824 | 51 ft | 12 kts | 281° |
| 2026-04-29 07:12 | 12.50220 | -70.00909 | 51 ft | 13 kts | 281° |
| 2026-04-29 07:13 | 12.50180 | -70.00976 | 47 ft | 12 kts | 213° |
| 2026-04-29 07:13 | 12.50105 | -70.00999 | 51 ft | 11 kts | 195° |
| 2026-04-29 07:13 | 12.50047 | -70.01033 | 51 ft | 10 kts | 235° |
| 2026-04-29 07:13 | 12.50046 | -70.01123 | 53 ft | 17 kts | 281° |
| 2026-04-29 07:14 | 12.50069 | -70.01243 | 48 ft | 18 kts | 281° |
| 2026-04-29 07:14 | 12.50097 | -70.01372 | 48 ft | 19 kts | 286° |
| 2026-04-29 07:14 | 12.50135 | -70.01507 | 51 ft | 21 kts | 286° |
| 2026-04-29 07:14 | 12.50167 | -70.01622 | 52 ft | 22 kts | 285° |
| 2026-04-29 07:15 | 12.50198 | -70.01778 | 47 ft | 23 kts | 282° |
| 2026-04-29 07:15 | 12.50238 | -70.01944 | 48 ft | 24 kts | 283° |
| 2026-04-29 07:15 | 12.50275 | -70.02108 | 44 ft | 26 kts | 283° |
| 2026-04-29 07:15 | 12.50319 | -70.02286 | 43 ft | 27 kts | 284° |
| 2026-04-29 07:16 | 12.50365 | -70.02477 | 41 ft | 28 kts | 284° |
| 2026-04-29 07:16 | 12.50405 | -70.02652 | 41 ft | 28 kts | 283° |
| 2026-04-29 07:16 | 12.50434 | -70.02791 | 41 ft | 0 kts | 314° |
| 2026-04-29 07:16 | 12.50439 | -70.02792 | 40 ft | 4 kts | 331° |
| 2026-04-29 07:17 | 12.50456 | -70.02783 | 41 ft | 2 kts | 65° |
| 2026-04-29 07:17 | 12.50448 | -70.02768 | 41 ft | 3 kts | 119° |
| 2026-04-29 07:17 | 12.50435 | -70.02743 | 41 ft | 4 kts | 110° |
| 2026-04-29 07:17 | 12.50410 | -70.02645 | 41 ft | 40 kts | 104° |
| 2026-04-29 07:18 | 12.50284 | -70.02135 | 45 ft | 106 kts | 103° |
| 2026-04-29 07:18 | 12.50066 | -70.01214 | 54 ft | 160 kts | 102° |
| 2026-04-29 07:18 | 12.49824 | -70.00099 | 721 ft | 156 kts | 102° |
| 2026-04-29 07:18 | 12.49835 | -69.99013 | 1402 ft | 155 kts | 77° |
| 2026-04-29 07:19 | 12.50168 | -69.97965 | 1885 ft | 154 kts | 79° |
| 2026-04-29 07:19 | 12.50256 | -69.96880 | 2378 ft | 155 kts | 94° |
| 2026-04-29 07:19 | 12.50108 | -69.95735 | 2664 ft | 170 kts | 98° |
| 2026-04-29 07:19 | 12.49948 | -69.94482 | 2892 ft | 185 kts | 98° |
| 2026-04-29 07:20 | 12.49611 | -69.93157 | 3215 ft | 199 kts | 105° |
| 2026-04-29 07:20 | 12.49157 | -69.91759 | 3512 ft | 216 kts | 107° |
| 2026-04-29 07:20 | 12.48664 | -69.90247 | 3838 ft | 232 kts | 107° |
| 2026-04-29 07:20 | 12.48159 | -69.88644 | 4339 ft | 239 kts | 107° |
| 2026-04-29 07:21 | 12.47697 | -69.87158 | 4856 ft | 244 kts | 106° |
| 2026-04-29 07:21 | 12.47179 | -69.85476 | 5427 ft | 249 kts | 107° |
| 2026-04-29 07:21 | 12.46658 | -69.83777 | 6026 ft | 252 kts | 107° |
| 2026-04-29 07:21 | 12.46127 | -69.82045 | 6639 ft | 256 kts | 107° |
| 2026-04-29 07:22 | 12.45594 | -69.80300 | 7244 ft | 259 kts | 107° |
| 2026-04-29 07:22 | 12.45050 | -69.78518 | 7800 ft | 264 kts | 107° |
| 2026-04-29 07:22 | 12.44501 | -69.76723 | 8342 ft | 268 kts | 107° |
| 2026-04-29 07:22 | 12.43935 | -69.74874 | 8875 ft | 272 kts | 107° |
| 2026-04-29 07:23 | 12.43365 | -69.73010 | 9416 ft | 275 kts | 107° |
| 2026-04-29 07:23 | 12.42794 | -69.71134 | 9923 ft | 279 kts | 107° |
| 2026-04-29 07:23 | 12.42204 | -69.69203 | 10278 ft | 290 kts | 107° |
| 2026-04-29 07:23 | 12.41590 | -69.67195 | 10556 ft | 303 kts | 107° |
| 2026-04-29 07:24 | 12.40952 | -69.65109 | 10854 ft | 316 kts | 108° |
| 2026-04-29 07:24 | 12.40282 | -69.62920 | 11140 ft | 328 kts | 108° |
| 2026-04-29 07:24 | 12.39593 | -69.60660 | 11413 ft | 339 kts | 108° |
| 2026-04-29 07:24 | 12.38877 | -69.58355 | 11680 ft | 350 kts | 109° |
| 2026-04-29 07:25 | 12.38093 | -69.55963 | 11945 ft | 360 kts | 109° |
| 2026-04-29 07:25 | 12.37264 | -69.53505 | 12208 ft | 369 kts | 110° |
| 2026-04-29 07:25 | 12.36412 | -69.51007 | 12545 ft | 375 kts | 110° |
| 2026-04-29 07:25 | 12.35548 | -69.48469 | 12910 ft | 380 kts | 110° |
| 2026-04-29 07:26 | 12.34689 | -69.45924 | 13279 ft | 384 kts | 110° |
| 2026-04-29 07:26 | 12.33815 | -69.43328 | 13650 ft | 388 kts | 109° |
| 2026-04-29 07:26 | 12.32935 | -69.40703 | 14043 ft | 391 kts | 109° |
| 2026-04-29 07:26 | 12.32057 | -69.38072 | 14437 ft | 393 kts | 109° |
| 2026-04-29 07:27 | 12.31167 | -69.35408 | 14792 ft | 398 kts | 109° |
| 2026-04-29 07:27 | 12.30270 | -69.32727 | 15186 ft | 400 kts | 109° |
| 2026-04-29 07:27 | 12.29365 | -69.30017 | 15563 ft | 403 kts | 109° |
| 2026-04-29 07:27 | 12.28456 | -69.27300 | 15948 ft | 405 kts | 109° |
| 2026-04-29 07:28 | 12.27543 | -69.24578 | 16293 ft | 409 kts | 110° |
| 2026-04-29 07:28 | 12.26612 | -69.21799 | 16670 ft | 411 kts | 109° |
| 2026-04-29 07:28 | 12.25682 | -69.19027 | 17038 ft | 414 kts | 110° |
| 2026-04-29 07:28 | 12.24740 | -69.16228 | 17372 ft | 417 kts | 109° |
| 2026-04-29 07:29 | 12.23825 | -69.13511 | 17698 ft | 420 kts | 110° |
| 2026-04-29 07:29 | 12.22874 | -69.10670 | 18045 ft | 422 kts | 109° |
| 2026-04-29 07:29 | 12.21923 | -69.07825 | 18386 ft | 425 kts | 110° |
| 2026-04-29 07:29 | 12.20788 | -69.05075 | 18699 ft | 426 kts | 117° |
| 2026-04-29 07:30 | 12.19233 | -69.02488 | 19050 ft | 427 kts | 127° |
| 2026-04-29 07:30 | 12.17255 | -69.00227 | 19414 ft | 427 kts | 138° |
| 2026-04-29 07:30 | 12.14907 | -68.98375 | 19732 ft | 428 kts | 147° |
| 2026-04-29 07:31 | 12.09780 | -68.95217 | 20364 ft | 432 kts | 151° |
| 2026-04-29 07:31 | 12.07141 | -68.93714 | 20700 ft | 434 kts | 152° |
| 2026-04-29 07:31 | 12.04501 | -68.92219 | 21004 ft | 436 kts | 152° |
| 2026-04-29 07:31 | 12.01946 | -68.90762 | 21301 ft | 438 kts | 151° |
| 2026-04-29 07:32 | 11.99286 | -68.89230 | 21630 ft | 439 kts | 151° |
| 2026-04-29 07:32 | 11.96937 | -68.87867 | 21886 ft | 441 kts | 150° |
| 2026-04-29 07:32 | 11.94518 | -68.86457 | 22182 ft | 442 kts | 151° |
| 2026-04-29 07:32 | 11.91944 | -68.84951 | 22468 ft | 444 kts | 150° |
| 2026-04-29 07:33 | 11.89250 | -68.83372 | 22745 ft | 446 kts | 150° |
| 2026-04-29 07:33 | 11.86585 | -68.81813 | 23034 ft | 448 kts | 151° |
| 2026-04-29 07:33 | 11.83874 | -68.80228 | 23348 ft | 449 kts | 151° |
| 2026-04-29 07:33 | 11.81160 | -68.78642 | 23623 ft | 451 kts | 151° |
| 2026-04-29 07:34 | 11.78425 | -68.77043 | 23914 ft | 453 kts | 151° |
| 2026-04-29 07:34 | 11.75689 | -68.75445 | 24221 ft | 454 kts | 151° |
| 2026-04-29 07:34 | 11.72945 | -68.73845 | 24470 ft | 457 kts | 151° |
| 2026-04-29 07:34 | 11.70162 | -68.72247 | 24699 ft | 460 kts | 152° |
| 2026-04-29 07:35 | 11.67362 | -68.70648 | 24981 ft | 462 kts | 152° |
| 2026-04-29 07:35 | 11.64548 | -68.69042 | 25257 ft | 464 kts | 152° |
| 2026-04-29 07:35 | 11.61722 | -68.67432 | 25510 ft | 468 kts | 152° |
| 2026-04-29 07:35 | 11.58862 | -68.65798 | 25797 ft | 470 kts | 152° |
| 2026-04-29 07:36 | 11.55999 | -68.64162 | 26088 ft | 473 kts | 152° |
| 2026-04-29 07:36 | 11.53117 | -68.62517 | 26364 ft | 476 kts | 152° |
| 2026-04-29 07:36 | 11.50226 | -68.60868 | 26649 ft | 478 kts | 152° |
| 2026-04-29 07:36 | 11.47311 | -68.59202 | 26942 ft | 481 kts | 152° |
| 2026-04-29 07:37 | 11.44390 | -68.57531 | 27256 ft | 484 kts | 152° |
| 2026-04-29 07:37 | 11.41444 | -68.55848 | 27541 ft | 487 kts | 152° |
| 2026-04-29 07:37 | 11.38476 | -68.54154 | 27846 ft | 489 kts | 152° |
| 2026-04-29 07:37 | 11.35529 | -68.52469 | 28120 ft | 493 kts | 152° |
| 2026-04-29 07:38 | 11.32499 | -68.50736 | 28399 ft | 495 kts | 152° |
| 2026-04-29 07:38 | 11.29490 | -68.49019 | 28674 ft | 498 kts | 152° |
| 2026-04-29 07:38 | 11.26489 | -68.47313 | 28938 ft | 500 kts | 152° |
| 2026-04-29 07:38 | 11.23441 | -68.45586 | 29182 ft | 503 kts | 152° |
| 2026-04-29 07:39 | 11.20344 | -68.43823 | 29446 ft | 505 kts | 152° |
| 2026-04-29 07:39 | 11.17300 | -68.42084 | 29683 ft | 508 kts | 152° |
| 2026-04-29 07:39 | 11.14210 | -68.40353 | 29906 ft | 510 kts | 154° |
| 2026-04-29 07:39 | 11.11040 | -68.38724 | 30129 ft | 511 kts | 156° |
| 2026-04-29 07:40 | 11.07822 | -68.37155 | 30406 ft | 512 kts | 156° |
| 2026-04-29 07:40 | 11.04609 | -68.35612 | 30761 ft | 511 kts | 156° |
| 2026-04-29 07:40 | 11.01403 | -68.34064 | 31072 ft | 511 kts | 156° |
| 2026-04-29 07:40 | 10.98196 | -68.32499 | 31362 ft | 511 kts | 156° |
| 2026-04-29 07:41 | 10.94994 | -68.30921 | 31654 ft | 511 kts | 156° |
| 2026-04-29 07:41 | 10.91805 | -68.29340 | 31947 ft | 510 kts | 156° |
| 2026-04-29 07:41 | 10.88620 | -68.27756 | 32236 ft | 510 kts | 155° |
| 2026-04-29 07:41 | 10.85423 | -68.26165 | 32520 ft | 510 kts | 155° |
| 2026-04-29 07:42 | 10.82245 | -68.24582 | 32803 ft | 509 kts | 155° |
| 2026-04-29 07:42 | 10.79065 | -68.23000 | 33089 ft | 508 kts | 155° |
| 2026-04-29 07:42 | 10.75880 | -68.21415 | 33347 ft | 508 kts | 156° |
| 2026-04-29 07:42 | 10.72700 | -68.19833 | 33587 ft | 508 kts | 156° |
| 2026-04-29 07:43 | 10.69525 | -68.18256 | 33839 ft | 508 kts | 155° |
| 2026-04-29 07:43 | 10.66353 | -68.16681 | 34099 ft | 507 kts | 156° |
| 2026-04-29 07:43 | 10.63179 | -68.15108 | 34335 ft | 507 kts | 156° |
| 2026-04-29 07:43 | 10.60050 | -68.13556 | 34547 ft | 507 kts | 156° |
| 2026-04-29 07:44 | 10.56881 | -68.11984 | 34779 ft | 506 kts | 156° |
| 2026-04-29 07:44 | 10.53752 | -68.10432 | 35027 ft | 505 kts | 156° |
| 2026-04-29 07:44 | 10.50588 | -68.08860 | 35247 ft | 505 kts | 156° |
| 2026-04-29 07:44 | 10.47531 | -68.07100 | 35428 ft | 506 kts | 149° |
| 2026-04-29 07:45 | 10.44578 | -68.05137 | 35610 ft | 507 kts | 148° |
| 2026-04-29 07:45 | 10.41659 | -68.03142 | 35815 ft | 507 kts | 148° |
| 2026-04-29 07:45 | 10.38745 | -68.01123 | 35954 ft | 508 kts | 147° |
| 2026-04-29 07:45 | 10.35829 | -67.99095 | 35976 ft | 511 kts | 147° |
| 2026-04-29 07:46 | 10.29934 | -67.94997 | 35970 ft | 513 kts | 147° |
| 2026-04-29 07:46 | 10.24033 | -67.90908 | 35975 ft | 513 kts | 147° |
| 2026-04-29 07:47 | 10.18656 | -67.87190 | 35971 ft | 512 kts | 147° |
| 2026-04-29 07:47 | 10.12771 | -67.83125 | 35971 ft | 512 kts | 147° |
| 2026-04-29 07:48 | 10.06887 | -67.79061 | 35970 ft | 512 kts | 147° |
| 2026-04-29 07:48 | 10.01991 | -67.75703 | 35968 ft | 511 kts | 149° |
| 2026-04-29 07:49 | 9.97771 | -67.73518 | 35972 ft | 507 kts | 161° |
| 2026-04-29 07:49 | 9.95548 | -67.72782 | 35973 ft | 505 kts | 167° |
| 2026-04-29 07:49 | 9.88715 | -67.71113 | 35970 ft | 505 kts | 169° |
| 2026-04-29 07:50 | 9.81842 | -67.69609 | 35971 ft | 505 kts | 170° |
| 2026-04-29 07:50 | 9.74968 | -67.68106 | 35970 ft | 505 kts | 170° |
| 2026-04-29 07:51 | 9.68093 | -67.66581 | 35971 ft | 506 kts | 169° |
| 2026-04-29 07:51 | 9.61257 | -67.65056 | 35972 ft | 506 kts | 169° |
| 2026-04-29 07:52 | 9.54392 | -67.63523 | 35971 ft | 506 kts | 170° |
| 2026-04-29 07:52 | 9.47521 | -67.61991 | 35971 ft | 506 kts | 169° |
| 2026-04-29 07:53 | 9.40622 | -67.60454 | 35971 ft | 506 kts | 169° |
| 2026-04-29 07:53 | 9.33735 | -67.58921 | 35962 ft | 507 kts | 169° |
| 2026-04-29 07:54 | 9.26864 | -67.57392 | 35961 ft | 507 kts | 169° |
| 2026-04-29 07:54 | 9.19969 | -67.55856 | 35962 ft | 507 kts | 169° |
| 2026-04-29 07:55 | 9.13075 | -67.54322 | 35962 ft | 507 kts | 169° |
| 2026-04-29 07:55 | 9.06187 | -67.52790 | 35962 ft | 507 kts | 169° |
| 2026-04-29 07:56 | 8.99283 | -67.51255 | 35962 ft | 508 kts | 170° |
| 2026-04-29 07:56 | 8.92379 | -67.49721 | 35953 ft | 508 kts | 169° |
| 2026-04-29 07:57 | 8.85517 | -67.48195 | 35962 ft | 508 kts | 169° |
| 2026-04-29 07:57 | 8.78572 | -67.46654 | 35962 ft | 508 kts | 169° |
| 2026-04-29 07:58 | 8.71702 | -67.45130 | 35953 ft | 508 kts | 169° |
| 2026-04-29 07:58 | 8.65455 | -67.43744 | 35953 ft | 508 kts | 169° |
| 2026-04-29 07:59 | 8.58553 | -67.42214 | 35952 ft | 508 kts | 169° |
| 2026-04-29 07:59 | 8.51648 | -67.40683 | 35950 ft | 508 kts | 169° |
| 2026-04-29 08:00 | 8.44734 | -67.39152 | 35943 ft | 508 kts | 169° |
| 2026-04-29 08:00 | 8.37805 | -67.37734 | 35943 ft | 506 kts | 175° |
| 2026-04-29 08:01 | 8.30819 | -67.37832 | 35942 ft | 501 kts | 188° |
| 2026-04-29 08:01 | 8.23918 | -67.38739 | 35934 ft | 501 kts | 190° |
| 2026-04-29 08:02 | 8.17041 | -67.39761 | 35934 ft | 501 kts | 191° |
| 2026-04-29 08:02 | 8.10163 | -67.40773 | 35926 ft | 501 kts | 190° |
| 2026-04-29 08:03 | 8.03260 | -67.41765 | 35925 ft | 501 kts | 190° |
| 2026-04-29 08:03 | 7.96351 | -67.42750 | 35924 ft | 501 kts | 190° |
| 2026-04-29 08:04 | 7.89429 | -67.43735 | 35916 ft | 502 kts | 190° |
| 2026-04-29 08:04 | 7.82483 | -67.44538 | 35916 ft | 503 kts | 186° |
| 2026-04-29 08:05 | 7.75487 | -67.44951 | 35908 ft | 503 kts | 185° |
| 2026-04-29 08:05 | 7.68489 | -67.45361 | 35906 ft | 504 kts | 186° |
| 2026-04-29 08:06 | 7.61499 | -67.45837 | 35905 ft | 503 kts | 186° |
| 2026-04-29 08:06 | 7.54512 | -67.46343 | 35897 ft | 503 kts | 186° |
| 2026-04-29 08:07 | 7.47524 | -67.46854 | 35897 ft | 504 kts | 186° |
| 2026-04-29 08:07 | 7.40531 | -67.47363 | 35887 ft | 504 kts | 186° |
| 2026-04-29 08:08 | 7.33537 | -67.47869 | 35888 ft | 504 kts | 186° |
| 2026-04-29 08:08 | 7.26598 | -67.48391 | 35887 ft | 504 kts | 186° |
| 2026-04-29 08:09 | 7.19602 | -67.48933 | 35879 ft | 504 kts | 186° |
| 2026-04-29 08:09 | 7.12605 | -67.49475 | 35881 ft | 504 kts | 186° |
| 2026-04-29 08:10 | 7.05617 | -67.50012 | 35875 ft | 504 kts | 187° |
| 2026-04-29 08:10 | 6.98614 | -67.50552 | 35877 ft | 504 kts | 187° |
| 2026-04-29 08:11 | 6.91611 | -67.51091 | 35855 ft | 504 kts | 187° |
| 2026-04-29 08:11 | 6.84604 | -67.51630 | 35868 ft | 504 kts | 187° |
| 2026-04-29 08:12 | 6.77618 | -67.52167 | 35866 ft | 504 kts | 187° |
| 2026-04-29 08:12 | 6.70656 | -67.52705 | 35868 ft | 504 kts | 187° |
| 2026-04-29 08:13 | 6.63659 | -67.53223 | 35855 ft | 504 kts | 186° |
| 2026-04-29 08:13 | 6.56618 | -67.53734 | 35858 ft | 504 kts | 186° |
| 2026-04-29 08:14 | 6.49656 | -67.54242 | 35866 ft | 504 kts | 186° |
| 2026-04-29 08:14 | 6.42661 | -67.54755 | 35856 ft | 504 kts | 186° |
| 2026-04-29 08:15 | 6.35637 | -67.55272 | 35858 ft | 504 kts | 186° |
| 2026-04-29 08:15 | 6.28668 | -67.55786 | 35856 ft | 504 kts | 186° |
| 2026-04-29 08:16 | 6.21672 | -67.56313 | 35855 ft | 504 kts | 187° |
| 2026-04-29 08:16 | 6.14676 | -67.56865 | 35853 ft | 504 kts | 187° |
| 2026-04-29 08:17 | 6.07687 | -67.57419 | 35863 ft | 504 kts | 187° |
| 2026-04-29 08:17 | 6.00705 | -67.57969 | 35859 ft | 504 kts | 187° |
| 2026-04-29 08:18 | 5.93756 | -67.58515 | 35854 ft | 504 kts | 187° |
| 2026-04-29 08:18 | 5.86713 | -67.59069 | 35856 ft | 504 kts | 187° |
| 2026-04-29 08:19 | 5.79764 | -67.59614 | 35863 ft | 504 kts | 187° |
| 2026-04-29 08:19 | 5.72759 | -67.60164 | 35859 ft | 504 kts | 187° |
| 2026-04-29 08:20 | 5.65762 | -67.60698 | 35853 ft | 505 kts | 185° |
| 2026-04-29 08:20 | 5.59472 | -67.60199 | 35856 ft | 509 kts | 169° |
| 2026-04-29 08:21 | 5.52651 | -67.58246 | 35860 ft | 511 kts | 164° |
| 2026-04-29 08:21 | 5.45880 | -67.56040 | 35866 ft | 512 kts | 163° |
| 2026-04-29 08:22 | 5.39674 | -67.53999 | 35860 ft | 512 kts | 163° |
| 2026-04-29 08:22 | 5.33911 | -67.52126 | 35856 ft | 512 kts | 164° |
| 2026-04-29 08:23 | 5.27175 | -67.49957 | 35860 ft | 512 kts | 164° |
| 2026-04-29 08:23 | 5.20385 | -67.47774 | 35880 ft | 512 kts | 164° |
| 2026-04-29 08:24 | 5.13596 | -67.45594 | 35863 ft | 512 kts | 163° |
| 2026-04-29 08:24 | 5.07042 | -67.43489 | 35880 ft | 512 kts | 163° |
| 2026-04-29 08:25 | 5.00506 | -67.41387 | 35862 ft | 512 kts | 163° |
| 2026-04-29 08:25 | 4.93714 | -67.39204 | 35880 ft | 512 kts | 163° |
| 2026-04-29 08:26 | 4.86923 | -67.37022 | 35883 ft | 512 kts | 163° |
| 2026-04-29 08:26 | 4.80188 | -67.34858 | 35867 ft | 511 kts | 163° |
| 2026-04-29 08:27 | 4.73361 | -67.32666 | 35881 ft | 511 kts | 163° |
| 2026-04-29 08:27 | 4.66624 | -67.30503 | 35881 ft | 512 kts | 163° |
| 2026-04-29 08:28 | 4.59840 | -67.28325 | 35861 ft | 512 kts | 163° |
| 2026-04-29 08:28 | 4.53054 | -67.26149 | 35879 ft | 512 kts | 163° |
| 2026-04-29 08:29 | 4.46274 | -67.23973 | 35883 ft | 512 kts | 163° |
| 2026-04-29 08:29 | 4.39482 | -67.21793 | 35881 ft | 512 kts | 163° |
| 2026-04-29 08:30 | 4.29305 | -67.18530 | 35880 ft | 512 kts | 163° |
| 2026-04-29 08:31 | 4.22529 | -67.16358 | 35879 ft | 511 kts | 163° |
| 2026-04-29 08:31 | 4.15752 | -67.14184 | 35868 ft | 511 kts | 163° |
| 2026-04-29 08:32 | 4.08968 | -67.12010 | 35868 ft | 511 kts | 163° |
| 2026-04-29 08:32 | 4.02182 | -67.09838 | 35880 ft | 511 kts | 163° |
| 2026-04-29 08:33 | 3.95435 | -67.07674 | 35881 ft | 511 kts | 163° |
| 2026-04-29 08:33 | 3.88675 | -67.05507 | 35881 ft | 510 kts | 163° |
| 2026-04-29 08:34 | 3.81916 | -67.03342 | 35881 ft | 510 kts | 163° |
| 2026-04-29 08:34 | 3.75142 | -67.01172 | 35887 ft | 510 kts | 163° |
| 2026-04-29 08:35 | 3.68384 | -66.99008 | 35887 ft | 510 kts | 163° |
| 2026-04-29 08:35 | 3.62762 | -66.97209 | 35888 ft | 510 kts | 163° |
| 2026-04-29 08:36 | 3.56001 | -66.95045 | 35888 ft | 510 kts | 163° |
| 2026-04-29 08:36 | 3.49241 | -66.92881 | 35889 ft | 510 kts | 163° |
| 2026-04-29 08:37 | 3.42478 | -66.90717 | 35888 ft | 509 kts | 163° |
| 2026-04-29 08:37 | 3.35723 | -66.88555 | 35889 ft | 509 kts | 163° |
| 2026-04-29 08:38 | 3.29024 | -66.86410 | 35881 ft | 508 kts | 163° |
| 2026-04-29 08:38 | 3.22287 | -66.84263 | 35881 ft | 509 kts | 163° |
| 2026-04-29 08:39 | 3.15534 | -66.82103 | 35880 ft | 509 kts | 163° |
| 2026-04-29 08:39 | 3.08790 | -66.79942 | 35881 ft | 509 kts | 163° |
| 2026-04-29 08:40 | 3.02043 | -66.77782 | 35879 ft | 508 kts | 163° |
| 2026-04-29 08:40 | 2.95321 | -66.75631 | 35880 ft | 507 kts | 163° |
| 2026-04-29 08:41 | 2.88603 | -66.73483 | 35879 ft | 507 kts | 163° |
| 2026-04-29 08:41 | 2.81871 | -66.71332 | 35881 ft | 507 kts | 163° |
| 2026-04-29 08:42 | 2.75195 | -66.69198 | 35879 ft | 506 kts | 163° |
| 2026-04-29 08:42 | 2.68476 | -66.67050 | 35865 ft | 506 kts | 163° |
| 2026-04-29 08:43 | 2.61781 | -66.64911 | 35880 ft | 505 kts | 163° |
| 2026-04-29 08:43 | 2.55089 | -66.62772 | 35880 ft | 505 kts | 163° |
| 2026-04-29 08:44 | 2.48393 | -66.60633 | 35879 ft | 504 kts | 163° |
| 2026-04-29 08:44 | 2.41716 | -66.58500 | 35881 ft | 504 kts | 163° |
| 2026-04-29 08:45 | 2.35034 | -66.56366 | 35861 ft | 504 kts | 163° |
| 2026-04-29 08:45 | 2.28369 | -66.54238 | 35880 ft | 503 kts | 163° |
| 2026-04-29 08:46 | 2.21699 | -66.52115 | 35879 ft | 502 kts | 163° |
| 2026-04-29 08:46 | 2.15328 | -66.50075 | 35879 ft | 502 kts | 163° |
| 2026-04-29 08:47 | 2.08664 | -66.47945 | 35880 ft | 502 kts | 163° |
| 2026-04-29 08:47 | 2.02003 | -66.45819 | 35880 ft | 502 kts | 163° |
| 2026-04-29 08:48 | 1.95352 | -66.43695 | 35879 ft | 502 kts | 163° |
| 2026-04-29 08:48 | 1.88715 | -66.41576 | 35882 ft | 501 kts | 163° |
| 2026-04-29 08:49 | 1.82070 | -66.39456 | 35882 ft | 501 kts | 163° |
| 2026-04-29 08:49 | 1.75476 | -66.37352 | 35874 ft | 501 kts | 163° |
| 2026-04-29 08:50 | 1.68819 | -66.35229 | 35869 ft | 501 kts | 163° |
| 2026-04-29 08:50 | 1.62177 | -66.33109 | 35882 ft | 501 kts | 163° |
| 2026-04-29 08:51 | 1.55528 | -66.30987 | 35880 ft | 501 kts | 163° |
| 2026-04-29 08:51 | 1.48886 | -66.28868 | 35875 ft | 501 kts | 163° |
| 2026-04-29 08:52 | 1.42233 | -66.26746 | 35881 ft | 502 kts | 163° |
| 2026-04-29 08:52 | 1.35577 | -66.24623 | 35879 ft | 502 kts | 162° |
| 2026-04-29 08:53 | 1.28914 | -66.22496 | 35881 ft | 502 kts | 162° |
| 2026-04-29 08:53 | 1.22261 | -66.20374 | 35880 ft | 502 kts | 162° |
| 2026-04-29 08:54 | 1.15651 | -66.18264 | 35881 ft | 502 kts | 162° |
| 2026-04-29 08:54 | 1.08981 | -66.16137 | 35884 ft | 503 kts | 162° |
| 2026-04-29 08:55 | 1.02315 | -66.14012 | 35887 ft | 503 kts | 162° |
| 2026-04-29 08:55 | 0.96674 | -66.12212 | 35887 ft | 503 kts | 162° |
| 2026-04-29 08:56 | 0.90379 | -66.10205 | 35889 ft | 503 kts | 162° |
| 2026-04-29 08:56 | 0.83740 | -66.08096 | 35885 ft | 504 kts | 163° |
| 2026-04-29 08:57 | 0.76855 | -66.07058 | 35888 ft | 503 kts | 181° |
| 2026-04-29 08:57 | 0.69910 | -66.07889 | 35886 ft | 503 kts | 189° |
| 2026-04-29 08:58 | 0.63002 | -66.09123 | 35887 ft | 504 kts | 191° |
| 2026-04-29 08:58 | 0.56111 | -66.10387 | 35887 ft | 504 kts | 190° |
| 2026-04-29 08:59 | 0.49214 | -66.11626 | 35887 ft | 504 kts | 190° |
| 2026-04-29 08:59 | 0.42288 | -66.12853 | 35887 ft | 505 kts | 190° |
| 2026-04-29 09:00 | 0.35367 | -66.14078 | 35888 ft | 505 kts | 190° |
| 2026-04-29 09:00 | 0.28487 | -66.15293 | 35889 ft | 505 kts | 190° |
| 2026-04-29 09:01 | 0.21507 | -66.16526 | 35880 ft | 505 kts | 190° |
| 2026-04-29 09:01 | 0.14637 | -66.17742 | 35880 ft | 505 kts | 190° |
| 2026-04-29 09:02 | 0.07717 | -66.18967 | 35881 ft | 505 kts | 190° |
| 2026-04-29 09:02 | 0.00780 | -66.20194 | 35882 ft | 505 kts | 190° |
| 2026-04-29 09:03 | -0.06147 | -66.21420 | 35861 ft | 506 kts | 190° |
| 2026-04-29 09:03 | -0.13090 | -66.22649 | 35880 ft | 507 kts | 189° |
| 2026-04-29 09:04 | -0.19992 | -66.23873 | 35879 ft | 506 kts | 189° |
| 2026-04-29 09:04 | -0.26933 | -66.25101 | 35872 ft | 506 kts | 189° |
| 2026-04-29 09:05 | -0.33878 | -66.26327 | 35882 ft | 506 kts | 189° |
| 2026-04-29 09:05 | -0.40802 | -66.27552 | 35882 ft | 505 kts | 189° |
| 2026-04-29 09:06 | -0.47736 | -66.28782 | 35864 ft | 506 kts | 189° |
| 2026-04-29 09:06 | -0.54665 | -66.30008 | 35861 ft | 505 kts | 189° |
| 2026-04-29 09:07 | -0.61581 | -66.31228 | 35869 ft | 505 kts | 189° |
| 2026-04-29 09:07 | -0.68514 | -66.32454 | 35860 ft | 505 kts | 189° |
| 2026-04-29 09:08 | -0.75442 | -66.33681 | 35873 ft | 505 kts | 189° |
| 2026-04-29 09:08 | -0.82306 | -66.34896 | 35879 ft | 505 kts | 189° |
| 2026-04-29 09:09 | -0.89229 | -66.36119 | 35865 ft | 504 kts | 189° |
| 2026-04-29 09:09 | -0.96135 | -66.37341 | 35878 ft | 504 kts | 190° |
| 2026-04-29 09:10 | -1.03036 | -66.38563 | 35865 ft | 504 kts | 190° |
| 2026-04-29 09:10 | -1.09944 | -66.39786 | 35873 ft | 503 kts | 190° |
| 2026-04-29 09:11 | -1.16846 | -66.41006 | 35873 ft | 503 kts | 190° |
| 2026-04-29 09:11 | -1.23684 | -66.42217 | 35873 ft | 503 kts | 190° |
| 2026-04-29 09:12 | -1.30572 | -66.43437 | 35875 ft | 503 kts | 190° |
| 2026-04-29 09:12 | -1.37463 | -66.44656 | 35861 ft | 503 kts | 190° |
| 2026-04-29 09:13 | -1.44364 | -66.45876 | 35866 ft | 503 kts | 190° |
| 2026-04-29 09:13 | -1.51247 | -66.47094 | 35863 ft | 503 kts | 190° |
| 2026-04-29 09:14 | -1.58145 | -66.48317 | 35879 ft | 503 kts | 190° |
| 2026-04-29 09:14 | -1.65020 | -66.49534 | 35880 ft | 502 kts | 190° |
| 2026-04-29 09:15 | -1.71904 | -66.50752 | 35867 ft | 502 kts | 190° |
| 2026-04-29 09:15 | -1.78783 | -66.51970 | 35872 ft | 502 kts | 190° |
| 2026-04-29 09:16 | -1.85669 | -66.53188 | 35867 ft | 502 kts | 190° |
| 2026-04-29 09:16 | -1.92496 | -66.54397 | 35879 ft | 502 kts | 190° |
| 2026-04-29 09:17 | -1.99378 | -66.55569 | 35873 ft | 502 kts | 189° |
| 2026-04-29 09:17 | -2.06273 | -66.56723 | 35868 ft | 501 kts | 189° |
| 2026-04-29 09:18 | -2.13150 | -66.57881 | 35867 ft | 501 kts | 189° |
| 2026-04-29 09:18 | -2.19991 | -66.59041 | 35880 ft | 501 kts | 189° |
| 2026-04-29 09:19 | -2.26905 | -66.60214 | 35874 ft | 501 kts | 189° |
| 2026-04-29 09:19 | -2.33751 | -66.61373 | 35878 ft | 501 kts | 189° |
| 2026-04-29 09:20 | -2.40629 | -66.62538 | 35876 ft | 501 kts | 189° |
| 2026-04-29 09:20 | -2.47500 | -66.63701 | 35863 ft | 501 kts | 189° |
| 2026-04-29 09:21 | -2.54385 | -66.64866 | 35869 ft | 501 kts | 189° |
| 2026-04-29 09:21 | -2.61261 | -66.66033 | 35881 ft | 501 kts | 189° |
| 2026-04-29 09:22 | -2.68148 | -66.67203 | 35866 ft | 501 kts | 189° |
| 2026-04-29 09:22 | -2.75013 | -66.68366 | 35869 ft | 501 kts | 189° |
| 2026-04-29 09:23 | -2.81855 | -66.69524 | 35879 ft | 501 kts | 189° |
| 2026-04-29 09:23 | -2.88726 | -66.70688 | 35878 ft | 502 kts | 189° |
| 2026-04-29 09:24 | -2.94455 | -66.71660 | 35879 ft | 502 kts | 189° |
| 2026-04-29 09:24 | -3.01334 | -66.72823 | 35881 ft | 502 kts | 189° |
| 2026-04-29 09:25 | -3.08236 | -66.73992 | 35862 ft | 502 kts | 189° |
| 2026-04-29 09:25 | -3.15115 | -66.75158 | 35866 ft | 502 kts | 189° |
| 2026-04-29 09:26 | -3.22005 | -66.76327 | 35877 ft | 502 kts | 189° |
| 2026-04-29 09:26 | -3.28094 | -66.77359 | 35880 ft | 501 kts | 189° |
| 2026-04-29 09:27 | -3.34975 | -66.78526 | 35880 ft | 501 kts | 189° |
| 2026-04-29 09:27 | -3.41852 | -66.79693 | 35882 ft | 502 kts | 189° |
| 2026-04-29 09:28 | -3.48691 | -66.80853 | 35880 ft | 502 kts | 189° |
| 2026-04-29 09:28 | -3.55588 | -66.82025 | 35879 ft | 502 kts | 189° |
| 2026-04-29 09:29 | -3.62473 | -66.83200 | 35878 ft | 502 kts | 189° |
| 2026-04-29 09:29 | -3.72807 | -66.84955 | 35880 ft | 502 kts | 189° |
| 2026-04-29 09:30 | -3.79653 | -66.86122 | 35882 ft | 502 kts | 189° |
| 2026-04-29 09:30 | -3.86537 | -66.87286 | 35887 ft | 502 kts | 189° |
| 2026-04-29 09:31 | -3.93415 | -66.88451 | 35888 ft | 502 kts | 189° |
| 2026-04-29 09:31 | -4.00303 | -66.89623 | 35887 ft | 501 kts | 189° |
| 2026-04-29 09:32 | -4.07183 | -66.90793 | 35887 ft | 501 kts | 189° |
| 2026-04-29 09:32 | -4.14064 | -66.91962 | 35889 ft | 501 kts | 189° |
| 2026-04-29 09:33 | -4.20731 | -66.93096 | 35888 ft | 501 kts | 189° |
| 2026-04-29 09:33 | -4.27610 | -66.94266 | 35888 ft | 501 kts | 189° |
| 2026-04-29 09:34 | -4.34489 | -66.95437 | 35888 ft | 501 kts | 189° |
| 2026-04-29 09:34 | -4.41364 | -66.96605 | 35888 ft | 501 kts | 189° |
| 2026-04-29 09:35 | -4.48197 | -66.97769 | 35889 ft | 501 kts | 189° |
| 2026-04-29 09:35 | -4.55083 | -66.98942 | 35897 ft | 501 kts | 189° |
| 2026-04-29 09:36 | -4.61946 | -67.00112 | 35897 ft | 501 kts | 189° |
| 2026-04-29 09:36 | -4.68834 | -67.01283 | 35897 ft | 501 kts | 189° |
| 2026-04-29 09:37 | -4.75712 | -67.02455 | 35897 ft | 501 kts | 189° |
| 2026-04-29 09:37 | -4.82603 | -67.03629 | 35897 ft | 501 kts | 189° |
| 2026-04-29 09:38 | -4.89439 | -67.04794 | 35897 ft | 501 kts | 189° |
| 2026-04-29 09:38 | -4.96323 | -67.05968 | 35897 ft | 501 kts | 189° |
| 2026-04-29 09:39 | -5.03197 | -67.07139 | 35897 ft | 501 kts | 189° |
| 2026-04-29 09:39 | -5.10075 | -67.08312 | 35897 ft | 501 kts | 189° |
| 2026-04-29 09:40 | -5.16960 | -67.09486 | 35897 ft | 501 kts | 189° |
| 2026-04-29 09:40 | -5.23839 | -67.10660 | 35896 ft | 501 kts | 189° |
| 2026-04-29 09:41 | -5.30713 | -67.11833 | 35897 ft | 501 kts | 189° |
| 2026-04-29 09:41 | -5.37602 | -67.13010 | 35897 ft | 501 kts | 189° |
| 2026-04-29 09:42 | -5.44477 | -67.14182 | 35905 ft | 501 kts | 189° |
| 2026-04-29 09:42 | -5.51321 | -67.15351 | 35897 ft | 501 kts | 189° |
| 2026-04-29 09:43 | -5.58195 | -67.16526 | 35897 ft | 501 kts | 189° |
| 2026-04-29 09:43 | -5.65068 | -67.17701 | 35897 ft | 501 kts | 189° |
| 2026-04-29 09:44 | -5.71952 | -67.18875 | 35897 ft | 501 kts | 189° |
| 2026-04-29 09:44 | -5.78831 | -67.20051 | 35897 ft | 501 kts | 189° |
| 2026-04-29 09:45 | -5.85712 | -67.21227 | 35897 ft | 501 kts | 189° |
| 2026-04-29 09:45 | -5.92594 | -67.22400 | 35897 ft | 501 kts | 189° |
| 2026-04-29 09:46 | -5.98883 | -67.23475 | 35897 ft | 501 kts | 189° |
| 2026-04-29 09:46 | -6.05761 | -67.24651 | 35897 ft | 501 kts | 189° |
| 2026-04-29 09:47 | -6.12632 | -67.25826 | 35897 ft | 501 kts | 189° |
| 2026-04-29 09:47 | -6.19500 | -67.27002 | 35897 ft | 501 kts | 189° |
| 2026-04-29 09:48 | -6.26372 | -67.28176 | 35902 ft | 501 kts | 189° |
| 2026-04-29 09:48 | -6.33254 | -67.29354 | 35906 ft | 501 kts | 189° |
| 2026-04-29 09:49 | -6.40074 | -67.30521 | 35907 ft | 500 kts | 189° |
| 2026-04-29 09:49 | -6.46944 | -67.31699 | 35906 ft | 500 kts | 189° |
| 2026-04-29 09:50 | -6.53806 | -67.32875 | 35906 ft | 500 kts | 189° |
| 2026-04-29 09:50 | -6.60673 | -67.34052 | 35906 ft | 500 kts | 189° |
| 2026-04-29 09:51 | -6.67535 | -67.35228 | 35906 ft | 501 kts | 189° |
| 2026-04-29 09:51 | -6.74405 | -67.36405 | 35906 ft | 501 kts | 189° |
| 2026-04-29 09:52 | -6.81283 | -67.37585 | 35906 ft | 501 kts | 189° |
| 2026-04-29 09:52 | -6.88153 | -67.38763 | 35906 ft | 500 kts | 190° |
| 2026-04-29 09:53 | -6.95025 | -67.39941 | 35911 ft | 500 kts | 190° |
| 2026-04-29 09:53 | -7.01886 | -67.41121 | 35915 ft | 500 kts | 190° |
| 2026-04-29 09:54 | -7.08748 | -67.42300 | 35915 ft | 500 kts | 190° |
| 2026-04-29 09:54 | -7.15615 | -67.43478 | 35915 ft | 500 kts | 190° |
| 2026-04-29 09:55 | -7.22429 | -67.44647 | 35915 ft | 500 kts | 190° |
| 2026-04-29 09:55 | -7.29298 | -67.45828 | 35915 ft | 500 kts | 190° |
| 2026-04-29 09:56 | -7.36194 | -67.47016 | 35915 ft | 500 kts | 190° |
| 2026-04-29 09:56 | -7.43016 | -67.48192 | 35916 ft | 500 kts | 190° |
| 2026-04-29 09:57 | -7.49878 | -67.49373 | 35915 ft | 500 kts | 189° |
| 2026-04-29 09:57 | -7.56733 | -67.50538 | 35916 ft | 500 kts | 189° |
| 2026-04-29 09:58 | -7.63601 | -67.51707 | 35917 ft | 500 kts | 190° |
| 2026-04-29 09:58 | -7.70460 | -67.52884 | 35925 ft | 499 kts | 190° |
| 2026-04-29 09:59 | -7.77311 | -67.54065 | 35924 ft | 499 kts | 190° |
| 2026-04-29 09:59 | -7.84153 | -67.55245 | 35925 ft | 500 kts | 190° |
| 2026-04-29 10:00 | -7.91014 | -67.56429 | 35924 ft | 499 kts | 190° |
| 2026-04-29 10:00 | -7.97866 | -67.57611 | 35925 ft | 499 kts | 190° |
| 2026-04-29 10:01 | -8.04681 | -67.58784 | 35925 ft | 499 kts | 190° |
| 2026-04-29 10:01 | -8.11532 | -67.59968 | 35925 ft | 499 kts | 190° |
| 2026-04-29 10:02 | -8.18382 | -67.61153 | 35925 ft | 499 kts | 190° |
| 2026-04-29 10:02 | -8.25235 | -67.62336 | 35925 ft | 499 kts | 190° |
| 2026-04-29 10:03 | -8.32090 | -67.63522 | 35925 ft | 499 kts | 190° |
| 2026-04-29 10:03 | -8.38934 | -67.64707 | 35924 ft | 499 kts | 190° |
| 2026-04-29 10:04 | -8.45787 | -67.65891 | 35932 ft | 499 kts | 190° |
| 2026-04-29 10:04 | -8.52450 | -67.67043 | 35934 ft | 499 kts | 190° |
| 2026-04-29 10:05 | -8.59302 | -67.68227 | 35934 ft | 499 kts | 190° |
| 2026-04-29 10:05 | -8.66120 | -67.69406 | 35934 ft | 500 kts | 190° |
| 2026-04-29 10:06 | -8.72975 | -67.70594 | 35934 ft | 500 kts | 190° |
| 2026-04-29 10:06 | -8.79832 | -67.71782 | 35934 ft | 500 kts | 190° |
| 2026-04-29 10:07 | -8.86699 | -67.72973 | 35935 ft | 499 kts | 190° |
| 2026-04-29 10:07 | -8.92388 | -67.73959 | 35934 ft | 499 kts | 190° |
| 2026-04-29 10:08 | -9.00365 | -67.75342 | 35934 ft | 500 kts | 190° |
| 2026-04-29 10:08 | -9.07221 | -67.76531 | 35934 ft | 500 kts | 190° |
| 2026-04-29 10:09 | -9.14080 | -67.77725 | 35935 ft | 500 kts | 190° |
| 2026-04-29 10:09 | -9.20921 | -67.78915 | 35934 ft | 500 kts | 190° |
| 2026-04-29 10:10 | -9.26357 | -67.79857 | 35934 ft | 500 kts | 190° |
| 2026-04-29 10:10 | -9.32391 | -67.80902 | 35934 ft | 500 kts | 189° |
| 2026-04-29 10:11 | -9.39202 | -67.82083 | 35934 ft | 500 kts | 189° |
| 2026-04-29 10:11 | -9.45998 | -67.83266 | 35934 ft | 500 kts | 189° |
| 2026-04-29 10:12 | -9.52846 | -67.84457 | 35934 ft | 499 kts | 189° |
| 2026-04-29 10:12 | -9.58969 | -67.85522 | 35934 ft | 499 kts | 189° |
| 2026-04-29 10:13 | -9.65409 | -67.86642 | 35934 ft | 499 kts | 189° |
| 2026-04-29 10:13 | -9.72268 | -67.87836 | 35934 ft | 499 kts | 189° |
| 2026-04-29 10:14 | -9.79107 | -67.89026 | 35934 ft | 499 kts | 189° |
| 2026-04-29 10:14 | -9.85938 | -67.90004 | 35934 ft | 499 kts | 182° |
| 2026-04-29 10:15 | -9.92806 | -67.89287 | 35936 ft | 498 kts | 168° |
| 2026-04-29 10:15 | -9.99599 | -67.87742 | 35937 ft | 500 kts | 166° |
| 2026-04-29 10:16 | -10.06352 | -67.86101 | 35934 ft | 500 kts | 166° |
| 2026-04-29 10:16 | -10.13122 | -67.84470 | 35935 ft | 499 kts | 167° |
| 2026-04-29 10:17 | -10.19903 | -67.82856 | 35936 ft | 500 kts | 167° |
| 2026-04-29 10:17 | -10.26690 | -67.81248 | 35935 ft | 500 kts | 167° |
| 2026-04-29 10:18 | -10.33472 | -67.79640 | 35934 ft | 501 kts | 167° |
| 2026-04-29 10:18 | -10.40229 | -67.78037 | 35933 ft | 502 kts | 167° |
| 2026-04-29 10:19 | -10.47046 | -67.76417 | 35935 ft | 503 kts | 167° |
| 2026-04-29 10:19 | -10.53869 | -67.74796 | 35936 ft | 503 kts | 167° |
| 2026-04-29 10:20 | -10.60695 | -67.73173 | 35935 ft | 504 kts | 167° |
| 2026-04-29 10:20 | -10.67531 | -67.71556 | 35932 ft | 505 kts | 167° |
| 2026-04-29 10:21 | -10.74382 | -67.69972 | 35925 ft | 507 kts | 168° |
| 2026-04-29 10:21 | -10.81275 | -67.68432 | 35925 ft | 508 kts | 168° |
| 2026-04-29 10:22 | -10.88194 | -67.66883 | 35925 ft | 509 kts | 168° |
| 2026-04-29 10:22 | -10.95126 | -67.65317 | 35924 ft | 511 kts | 168° |
| 2026-04-29 10:23 | -11.02075 | -67.63743 | 35924 ft | 512 kts | 168° |
| 2026-04-29 10:23 | -11.08993 | -67.62174 | 35931 ft | 513 kts | 168° |
| 2026-04-29 10:24 | -11.15978 | -67.60590 | 35937 ft | 514 kts | 168° |
| 2026-04-29 10:24 | -11.22965 | -67.59004 | 35919 ft | 515 kts | 168° |
| 2026-04-29 10:25 | -11.29962 | -67.57416 | 35915 ft | 516 kts | 168° |
| 2026-04-29 10:25 | -11.36996 | -67.55819 | 35915 ft | 518 kts | 168° |
| 2026-04-29 10:26 | -11.44040 | -67.54217 | 35915 ft | 519 kts | 168° |
| 2026-04-29 10:26 | -11.51087 | -67.52615 | 35924 ft | 520 kts | 168° |
| 2026-04-29 10:27 | -11.61690 | -67.50203 | 35924 ft | 520 kts | 168° |
| 2026-04-29 10:28 | -11.68759 | -67.48593 | 35924 ft | 521 kts | 168° |
| 2026-04-29 10:28 | -11.75858 | -67.46976 | 35927 ft | 521 kts | 168° |
| 2026-04-29 10:29 | -11.82889 | -67.45375 | 35925 ft | 522 kts | 168° |
| 2026-04-29 10:29 | -11.89978 | -67.43759 | 35925 ft | 522 kts | 168° |
| 2026-04-29 10:30 | -11.97129 | -67.42127 | 35924 ft | 523 kts | 168° |
| 2026-04-29 10:30 | -12.04172 | -67.40519 | 35924 ft | 522 kts | 168° |
| 2026-04-29 10:31 | -12.11283 | -67.38894 | 35924 ft | 524 kts | 168° |
| 2026-04-29 10:31 | -12.18390 | -67.37270 | 35924 ft | 524 kts | 168° |
| 2026-04-29 10:32 | -12.25507 | -67.35643 | 35924 ft | 523 kts | 168° |
| 2026-04-29 10:32 | -12.32608 | -67.34020 | 35924 ft | 523 kts | 168° |
| 2026-04-29 10:33 | -12.39711 | -67.32395 | 35924 ft | 523 kts | 168° |
| 2026-04-29 10:33 | -12.46813 | -67.30768 | 35925 ft | 523 kts | 168° |
| 2026-04-29 10:34 | -12.53883 | -67.29147 | 35935 ft | 523 kts | 168° |
| 2026-04-29 10:34 | -12.61005 | -67.27514 | 35938 ft | 523 kts | 168° |
| 2026-04-29 10:35 | -12.68099 | -67.25887 | 35944 ft | 523 kts | 169° |
| 2026-04-29 10:35 | -12.75203 | -67.24256 | 35943 ft | 523 kts | 169° |
| 2026-04-29 10:36 | -12.82300 | -67.22627 | 35950 ft | 522 kts | 169° |
| 2026-04-29 10:36 | -12.89409 | -67.21017 | 35953 ft | 522 kts | 169° |
| 2026-04-29 10:37 | -12.96460 | -67.19426 | 35952 ft | 522 kts | 169° |
| 2026-04-29 10:37 | -13.03561 | -67.17820 | 35953 ft | 522 kts | 169° |
| 2026-04-29 10:38 | -13.10647 | -67.16214 | 35953 ft | 522 kts | 169° |
| 2026-04-29 10:38 | -13.17741 | -67.14605 | 35953 ft | 521 kts | 169° |
| 2026-04-29 10:39 | -13.24832 | -67.12996 | 35952 ft | 521 kts | 169° |
| 2026-04-29 10:39 | -13.31908 | -67.11392 | 35952 ft | 521 kts | 169° |
| 2026-04-29 10:40 | -13.38990 | -67.09783 | 35952 ft | 521 kts | 169° |
| 2026-04-29 10:40 | -13.46079 | -67.08171 | 35958 ft | 521 kts | 169° |
| 2026-04-29 10:41 | -13.53143 | -67.06563 | 35962 ft | 521 kts | 169° |
| 2026-04-29 10:41 | -13.59878 | -67.05030 | 35962 ft | 521 kts | 169° |
| 2026-04-29 10:42 | -13.66983 | -67.03413 | 35962 ft | 521 kts | 169° |
| 2026-04-29 10:42 | -13.73563 | -67.01914 | 35962 ft | 521 kts | 169° |
| 2026-04-29 10:43 | -13.80628 | -67.00304 | 35962 ft | 520 kts | 169° |
| 2026-04-29 10:43 | -13.87708 | -66.98688 | 35962 ft | 520 kts | 169° |
| 2026-04-29 10:44 | -13.94767 | -66.97077 | 35962 ft | 520 kts | 169° |
| 2026-04-29 10:44 | -14.01795 | -66.95471 | 35962 ft | 520 kts | 169° |
| 2026-04-29 10:45 | -14.08859 | -66.93857 | 35962 ft | 519 kts | 169° |
| 2026-04-29 10:45 | -14.15914 | -66.92243 | 35962 ft | 519 kts | 169° |
| 2026-04-29 10:46 | -14.22963 | -66.90629 | 35961 ft | 519 kts | 169° |
| 2026-04-29 10:46 | -14.30027 | -66.89011 | 35962 ft | 520 kts | 169° |
| 2026-04-29 10:47 | -14.37088 | -66.87394 | 35962 ft | 520 kts | 169° |
| 2026-04-29 10:47 | -14.44156 | -66.85774 | 35962 ft | 519 kts | 169° |
| 2026-04-29 10:48 | -14.51168 | -66.84173 | 35995 ft | 519 kts | 170° |
| 2026-04-29 10:48 | -14.58241 | -66.82571 | 35996 ft | 520 kts | 170° |
| 2026-04-29 10:49 | -14.65319 | -66.80966 | 36007 ft | 520 kts | 170° |
| 2026-04-29 10:49 | -14.72377 | -66.79366 | 36005 ft | 520 kts | 170° |
| 2026-04-29 10:50 | -14.79341 | -66.77786 | 36015 ft | 520 kts | 170° |
| 2026-04-29 10:50 | -14.86425 | -66.76177 | 36018 ft | 520 kts | 170° |
| 2026-04-29 10:51 | -14.93457 | -66.74580 | 36060 ft | 520 kts | 170° |
| 2026-04-29 10:51 | -15.00527 | -66.72972 | 36069 ft | 520 kts | 170° |
| 2026-04-29 10:52 | -15.07594 | -66.71361 | 36075 ft | 520 kts | 170° |
| 2026-04-29 10:52 | -15.14666 | -66.69750 | 36090 ft | 521 kts | 170° |
| 2026-04-29 10:53 | -15.21745 | -66.68137 | 36098 ft | 521 kts | 170° |
| 2026-04-29 10:53 | -15.28831 | -66.66521 | 36105 ft | 521 kts | 170° |
| 2026-04-29 10:54 | -15.35918 | -66.64902 | 36122 ft | 521 kts | 170° |
| 2026-04-29 10:54 | -15.43005 | -66.63284 | 36144 ft | 522 kts | 170° |
| 2026-04-29 10:55 | -15.48904 | -66.61935 | 36147 ft | 522 kts | 170° |
| 2026-04-29 10:55 | -15.57147 | -66.60050 | 36162 ft | 522 kts | 170° |
| 2026-04-29 10:56 | -15.64255 | -66.58423 | 36173 ft | 522 kts | 170° |
| 2026-04-29 10:56 | -15.70199 | -66.57070 | 36182 ft | 522 kts | 170° |
| 2026-04-29 10:57 | -15.77266 | -66.55468 | 36195 ft | 523 kts | 170° |
| 2026-04-29 10:57 | -15.84371 | -66.53858 | 36203 ft | 523 kts | 170° |
| 2026-04-29 10:58 | -15.91477 | -66.52244 | 36212 ft | 523 kts | 170° |
| 2026-04-29 10:58 | -15.98588 | -66.50627 | 36221 ft | 523 kts | 170° |
| 2026-04-29 10:59 | -16.05700 | -66.49008 | 36229 ft | 523 kts | 171° |
| 2026-04-29 10:59 | -16.12828 | -66.47385 | 36237 ft | 524 kts | 171° |
| 2026-04-29 11:00 | -16.19941 | -66.45765 | 36243 ft | 524 kts | 171° |
| 2026-04-29 11:00 | -16.27064 | -66.44140 | 36244 ft | 524 kts | 171° |
| 2026-04-29 11:01 | -16.34155 | -66.42521 | 36259 ft | 524 kts | 171° |
| 2026-04-29 11:01 | -16.41273 | -66.40899 | 36243 ft | 524 kts | 171° |
| 2026-04-29 11:02 | -16.48394 | -66.39272 | 36244 ft | 524 kts | 171° |
| 2026-04-29 11:02 | -16.55524 | -66.37640 | 36258 ft | 525 kts | 171° |
| 2026-04-29 11:03 | -16.62666 | -66.36006 | 36328 ft | 525 kts | 171° |
| 2026-04-29 11:03 | -16.69790 | -66.34378 | 36325 ft | 525 kts | 171° |
| 2026-04-29 11:04 | -16.76927 | -66.32758 | 36334 ft | 525 kts | 171° |
| 2026-04-29 11:04 | -16.84027 | -66.31146 | 36330 ft | 526 kts | 171° |
| 2026-04-29 11:05 | -16.91230 | -66.29509 | 36318 ft | 525 kts | 171° |
| 2026-04-29 11:05 | -16.98320 | -66.27895 | 36302 ft | 525 kts | 171° |
| 2026-04-29 11:06 | -17.05463 | -66.26268 | 36293 ft | 525 kts | 171° |
| 2026-04-29 11:06 | -17.12612 | -66.24639 | 36290 ft | 526 kts | 172° |
| 2026-04-29 11:07 | -17.19772 | -66.23007 | 36283 ft | 526 kts | 171° |
| 2026-04-29 11:07 | -17.26932 | -66.21372 | 36275 ft | 527 kts | 172° |
| 2026-04-29 11:08 | -17.34096 | -66.19736 | 36268 ft | 527 kts | 172° |
| 2026-04-29 11:08 | -17.40625 | -66.18244 | 36266 ft | 527 kts | 172° |
| 2026-04-29 11:09 | -17.47819 | -66.16779 | 36267 ft | 525 kts | 176° |
| 2026-04-29 11:09 | -17.55008 | -66.15757 | 36265 ft | 524 kts | 177° |
| 2026-04-29 11:10 | -17.62237 | -66.14737 | 36273 ft | 525 kts | 176° |
| 2026-04-29 11:10 | -17.69469 | -66.13640 | 36278 ft | 525 kts | 176° |
| 2026-04-29 11:11 | -17.76709 | -66.12511 | 36294 ft | 525 kts | 176° |
| 2026-04-29 11:11 | -17.83928 | -66.11384 | 36307 ft | 525 kts | 176° |
| 2026-04-29 11:12 | -17.91160 | -66.10258 | 36313 ft | 525 kts | 176° |
| 2026-04-29 11:12 | -17.98345 | -66.09138 | 36328 ft | 525 kts | 176° |
| 2026-04-29 11:13 | -18.05618 | -66.08004 | 36287 ft | 525 kts | 176° |
| 2026-04-29 11:13 | -18.12806 | -66.06882 | 36266 ft | 525 kts | 176° |
| 2026-04-29 11:14 | -18.20023 | -66.05756 | 36264 ft | 525 kts | 176° |
| 2026-04-29 11:14 | -18.27265 | -66.04624 | 36274 ft | 525 kts | 176° |
| 2026-04-29 11:15 | -18.34492 | -66.03494 | 36277 ft | 525 kts | 176° |
| 2026-04-29 11:15 | -18.41711 | -66.02365 | 36281 ft | 525 kts | 176° |
| 2026-04-29 11:16 | -18.48186 | -66.01350 | 36285 ft | 525 kts | 176° |
| 2026-04-29 11:16 | -18.54895 | -66.00303 | 36291 ft | 525 kts | 176° |
| 2026-04-29 11:17 | -18.62144 | -65.99175 | 36295 ft | 524 kts | 176° |
| 2026-04-29 11:17 | -18.69319 | -65.98055 | 36320 ft | 524 kts | 176° |
| 2026-04-29 11:18 | -18.76512 | -65.96933 | 36332 ft | 523 kts | 176° |
| 2026-04-29 11:18 | -18.83727 | -65.95802 | 36350 ft | 523 kts | 177° |
| 2026-04-29 11:19 | -18.90942 | -65.94676 | 36410 ft | 523 kts | 177° |
| 2026-04-29 11:19 | -18.98125 | -65.93554 | 36393 ft | 522 kts | 177° |
| 2026-04-29 11:20 | -19.05253 | -65.92438 | 36393 ft | 522 kts | 177° |
| 2026-04-29 11:20 | -19.12447 | -65.91310 | 36392 ft | 522 kts | 177° |
| 2026-04-29 11:21 | -19.19632 | -65.90182 | 36395 ft | 521 kts | 177° |
| 2026-04-29 11:21 | -19.26803 | -65.89056 | 36398 ft | 521 kts | 178° |
| 2026-04-29 11:22 | -19.33962 | -65.87930 | 36398 ft | 520 kts | 178° |
| 2026-04-29 11:22 | -19.41080 | -65.86821 | 36397 ft | 520 kts | 178° |
| 2026-04-29 11:23 | -19.48233 | -65.85709 | 36394 ft | 519 kts | 178° |
| 2026-04-29 11:23 | -19.55389 | -65.84593 | 36392 ft | 518 kts | 178° |
| 2026-04-29 11:24 | -19.62529 | -65.83479 | 36385 ft | 518 kts | 178° |
| 2026-04-29 11:24 | -19.69650 | -65.82369 | 36390 ft | 518 kts | 178° |
| 2026-04-29 11:25 | -19.76794 | -65.81259 | 36385 ft | 518 kts | 178° |
| 2026-04-29 11:25 | -19.83934 | -65.80146 | 36374 ft | 518 kts | 178° |
| 2026-04-29 11:26 | -19.94638 | -65.78476 | 36372 ft | 518 kts | 178° |
| 2026-04-29 11:26 | -20.01772 | -65.77364 | 36363 ft | 518 kts | 178° |
| 2026-04-29 11:27 | -20.08918 | -65.76255 | 36359 ft | 519 kts | 178° |
| 2026-04-29 11:27 | -20.16011 | -65.75160 | 36343 ft | 518 kts | 178° |
| 2026-04-29 11:28 | -20.23145 | -65.74060 | 36343 ft | 518 kts | 178° |
| 2026-04-29 11:28 | -20.30273 | -65.72957 | 36332 ft | 518 kts | 179° |
| 2026-04-29 11:29 | -20.37397 | -65.71855 | 36315 ft | 517 kts | 179° |
| 2026-04-29 11:29 | -20.44530 | -65.70751 | 36303 ft | 517 kts | 179° |
| 2026-04-29 11:30 | -20.51662 | -65.69647 | 36301 ft | 518 kts | 179° |
| 2026-04-29 11:30 | -20.58794 | -65.68538 | 36288 ft | 518 kts | 179° |
| 2026-04-29 11:31 | -20.64544 | -65.67643 | 36277 ft | 518 kts | 179° |
| 2026-04-29 11:31 | -20.71668 | -65.66535 | 36266 ft | 517 kts | 179° |
| 2026-04-29 11:32 | -20.78800 | -65.65427 | 36258 ft | 518 kts | 179° |
| 2026-04-29 11:32 | -20.85888 | -65.64322 | 36242 ft | 517 kts | 179° |
| 2026-04-29 11:33 | -20.93012 | -65.63213 | 36240 ft | 517 kts | 179° |
| 2026-04-29 11:33 | -21.00126 | -65.62101 | 36226 ft | 516 kts | 179° |
| 2026-04-29 11:34 | -21.07239 | -65.60990 | 36215 ft | 517 kts | 179° |
| 2026-04-29 11:34 | -21.14347 | -65.59879 | 36210 ft | 516 kts | 179° |
| 2026-04-29 11:35 | -21.21460 | -65.58766 | 36201 ft | 516 kts | 180° |
| 2026-04-29 11:35 | -21.28568 | -65.57653 | 36188 ft | 516 kts | 180° |
| 2026-04-29 11:36 | -21.35643 | -65.56544 | 36183 ft | 516 kts | 180° |
| 2026-04-29 11:36 | -21.42753 | -65.55428 | 36181 ft | 516 kts | 180° |
| 2026-04-29 11:37 | -21.49850 | -65.54311 | 36184 ft | 515 kts | 180° |
| 2026-04-29 11:37 | -21.56954 | -65.53194 | 36163 ft | 515 kts | 180° |
| 2026-04-29 11:38 | -21.64057 | -65.52077 | 36141 ft | 515 kts | 180° |
| 2026-04-29 11:38 | -21.71146 | -65.50963 | 36146 ft | 516 kts | 180° |
| 2026-04-29 11:39 | -21.78259 | -65.49842 | 36148 ft | 516 kts | 180° |
| 2026-04-29 11:39 | -21.85347 | -65.48723 | 36148 ft | 515 kts | 180° |
| 2026-04-29 11:40 | -21.91247 | -65.47789 | 36145 ft | 516 kts | 180° |
| 2026-04-29 11:40 | -21.98467 | -65.46647 | 36147 ft | 515 kts | 180° |
| 2026-04-29 11:41 | -22.05563 | -65.45522 | 36119 ft | 515 kts | 180° |
| 2026-04-29 11:41 | -22.11413 | -65.45062 | 36122 ft | 503 kts | 188° |
| 2026-04-29 11:42 | -22.19537 | -65.45089 | 36116 ft | 501 kts | 189° |
| 2026-04-29 11:42 | -22.25132 | -65.45166 | 36111 ft | 502 kts | 189° |
| 2026-04-29 11:43 | -22.31234 | -65.45237 | 36105 ft | 501 kts | 189° |
| 2026-04-29 11:43 | -22.38198 | -65.45316 | 36109 ft | 501 kts | 189° |
| 2026-04-29 11:44 | -22.45144 | -65.45400 | 36101 ft | 500 kts | 189° |
| 2026-04-29 11:44 | -22.52110 | -65.45485 | 36101 ft | 500 kts | 189° |
| 2026-04-29 11:45 | -22.59064 | -65.45571 | 36095 ft | 500 kts | 189° |
| 2026-04-29 11:45 | -22.66033 | -65.45656 | 36089 ft | 500 kts | 188° |
| 2026-04-29 11:46 | -22.72988 | -65.45737 | 36091 ft | 500 kts | 188° |
| 2026-04-29 11:46 | -22.79955 | -65.45822 | 36081 ft | 500 kts | 188° |
| 2026-04-29 11:47 | -22.86913 | -65.45919 | 36076 ft | 500 kts | 188° |
| 2026-04-29 11:47 | -22.93842 | -65.45997 | 36071 ft | 500 kts | 188° |
| 2026-04-29 11:48 | -23.00833 | -65.46074 | 36072 ft | 499 kts | 188° |
| 2026-04-29 11:48 | -23.07731 | -65.46158 | 36071 ft | 499 kts | 188° |
| 2026-04-29 11:49 | -23.14234 | -65.46237 | 36060 ft | 499 kts | 188° |
| 2026-04-29 11:49 | -23.20394 | -65.46312 | 36058 ft | 499 kts | 188° |
| 2026-04-29 11:50 | -23.27348 | -65.46397 | 36035 ft | 498 kts | 188° |
| 2026-04-29 11:50 | -23.34273 | -65.46482 | 36051 ft | 498 kts | 187° |
| 2026-04-29 11:51 | -23.41217 | -65.46567 | 36034 ft | 498 kts | 187° |
| 2026-04-29 11:51 | -23.48129 | -65.46647 | 36032 ft | 498 kts | 187° |
| 2026-04-29 11:52 | -23.54322 | -65.46726 | 36032 ft | 497 kts | 187° |
| 2026-04-29 11:52 | -23.59881 | -65.46804 | 36028 ft | 496 kts | 187° |
| 2026-04-29 11:53 | -23.66778 | -65.46888 | 36027 ft | 496 kts | 187° |
| 2026-04-29 11:53 | -23.73625 | -65.46973 | 36014 ft | 496 kts | 187° |
| 2026-04-29 11:54 | -23.80528 | -65.47061 | 36018 ft | 497 kts | 187° |
| 2026-04-29 11:54 | -23.87438 | -65.47138 | 36008 ft | 495 kts | 187° |
| 2026-04-29 11:55 | -23.94325 | -65.47224 | 36011 ft | 495 kts | 187° |
| 2026-04-29 11:55 | -24.01227 | -65.47310 | 36009 ft | 496 kts | 187° |
| 2026-04-29 11:56 | -24.08128 | -65.47395 | 36013 ft | 496 kts | 186° |
| 2026-04-29 11:56 | -24.15020 | -65.47475 | 36000 ft | 495 kts | 186° |
| 2026-04-29 11:57 | -24.21915 | -65.47561 | 35996 ft | 495 kts | 186° |
| 2026-04-29 11:57 | -24.28820 | -65.47649 | 36000 ft | 495 kts | 186° |
| 2026-04-29 11:58 | -24.35662 | -65.47738 | 35998 ft | 494 kts | 186° |
| 2026-04-29 11:58 | -24.42526 | -65.47826 | 36002 ft | 493 kts | 186° |
| 2026-04-29 11:59 | -24.49406 | -65.47914 | 36006 ft | 494 kts | 186° |
| 2026-04-29 11:59 | -24.56281 | -65.47999 | 36009 ft | 495 kts | 186° |
| 2026-04-29 12:00 | -24.63179 | -65.48085 | 36016 ft | 495 kts | 186° |
| 2026-04-29 12:00 | -24.70047 | -65.48169 | 36016 ft | 494 kts | 186° |
| 2026-04-29 12:01 | -24.76903 | -65.48253 | 36018 ft | 493 kts | 186° |
| 2026-04-29 12:01 | -24.83717 | -65.48305 | 36019 ft | 495 kts | 183° |
| 2026-04-29 12:02 | -24.90615 | -65.47380 | 36016 ft | 500 kts | 176° |
| 2026-04-29 12:02 | -24.97484 | -65.46129 | 36017 ft | 500 kts | 175° |
| 2026-04-29 12:03 | -25.04309 | -65.44841 | 36018 ft | 502 kts | 175° |
| 2026-04-29 12:03 | -25.11257 | -65.43535 | 36018 ft | 503 kts | 175° |
| 2026-04-29 12:04 | -25.18160 | -65.42246 | 36016 ft | 503 kts | 175° |
| 2026-04-29 12:04 | -25.25026 | -65.40966 | 36011 ft | 502 kts | 175° |
| 2026-04-29 12:05 | -25.31919 | -65.39681 | 36006 ft | 502 kts | 175° |
| 2026-04-29 12:05 | -25.38794 | -65.38398 | 36007 ft | 502 kts | 175° |
| 2026-04-29 12:06 | -25.45686 | -65.37110 | 35997 ft | 501 kts | 175° |
| 2026-04-29 12:06 | -25.52565 | -65.35821 | 35995 ft | 501 kts | 175° |
| 2026-04-29 12:07 | -25.59449 | -65.34529 | 35986 ft | 501 kts | 175° |
| 2026-04-29 12:07 | -25.66335 | -65.33239 | 35991 ft | 502 kts | 174° |
| 2026-04-29 12:08 | -25.73177 | -65.31955 | 35981 ft | 501 kts | 174° |
| 2026-04-29 12:08 | -25.80097 | -65.30654 | 35980 ft | 501 kts | 174° |
| 2026-04-29 12:09 | -25.86921 | -65.29367 | 35969 ft | 501 kts | 174° |
| 2026-04-29 12:09 | -25.93799 | -65.28072 | 35964 ft | 501 kts | 174° |
| 2026-04-29 12:10 | -26.00666 | -65.26777 | 35960 ft | 500 kts | 174° |
| 2026-04-29 12:10 | -26.07521 | -65.25482 | 35952 ft | 499 kts | 174° |
| 2026-04-29 12:11 | -26.14360 | -65.24186 | 35945 ft | 497 kts | 174° |
| 2026-04-29 12:11 | -26.21170 | -65.22897 | 35941 ft | 497 kts | 174° |
| 2026-04-29 12:12 | -26.27983 | -65.21604 | 35934 ft | 496 kts | 174° |
| 2026-04-29 12:12 | -26.34746 | -65.20321 | 35934 ft | 497 kts | 174° |
| 2026-04-29 12:13 | -26.41567 | -65.19025 | 35923 ft | 496 kts | 174° |
| 2026-04-29 12:13 | -26.48381 | -65.17729 | 35925 ft | 496 kts | 174° |
| 2026-04-29 12:14 | -26.55170 | -65.16434 | 35915 ft | 495 kts | 175° |
| 2026-04-29 12:14 | -26.61968 | -65.15137 | 35914 ft | 495 kts | 175° |
| 2026-04-29 12:15 | -26.68707 | -65.13849 | 35915 ft | 494 kts | 175° |
| 2026-04-29 12:15 | -26.75494 | -65.12554 | 35915 ft | 494 kts | 175° |
| 2026-04-29 12:16 | -26.82262 | -65.11258 | 35915 ft | 493 kts | 175° |
| 2026-04-29 12:16 | -26.88990 | -65.09974 | 35915 ft | 493 kts | 175° |
| 2026-04-29 12:17 | -26.95739 | -65.08656 | 35919 ft | 492 kts | 175° |
| 2026-04-29 12:17 | -27.02490 | -65.07332 | 35943 ft | 492 kts | 175° |
| 2026-04-29 12:18 | -27.09229 | -65.06016 | 35943 ft | 491 kts | 175° |
| 2026-04-29 12:18 | -27.15960 | -65.04703 | 35943 ft | 490 kts | 175° |
| 2026-04-29 12:19 | -27.22687 | -65.03390 | 35943 ft | 490 kts | 175° |
| 2026-04-29 12:19 | -27.29397 | -65.02077 | 35944 ft | 490 kts | 175° |
| 2026-04-29 12:20 | -27.36117 | -65.00760 | 35944 ft | 489 kts | 175° |
| 2026-04-29 12:20 | -27.42806 | -64.99449 | 35943 ft | 488 kts | 175° |
| 2026-04-29 12:21 | -27.49493 | -64.98136 | 35940 ft | 488 kts | 175° |
| 2026-04-29 12:21 | -27.56192 | -64.96819 | 35940 ft | 487 kts | 175° |
| 2026-04-29 12:22 | -27.62872 | -64.95504 | 35944 ft | 487 kts | 175° |
| 2026-04-29 12:22 | -27.69530 | -64.94193 | 35943 ft | 486 kts | 175° |
| 2026-04-29 12:23 | -27.76156 | -64.92887 | 35943 ft | 486 kts | 175° |
| 2026-04-29 12:23 | -27.82825 | -64.91645 | 35952 ft | 485 kts | 176° |
| 2026-04-29 12:24 | -27.89488 | -64.90432 | 35953 ft | 485 kts | 176° |
| 2026-04-29 12:24 | -27.96165 | -64.89208 | 35952 ft | 485 kts | 176° |
| 2026-04-29 12:25 | -28.02819 | -64.87978 | 35963 ft | 485 kts | 176° |
| 2026-04-29 12:26 | -28.12710 | -64.86141 | 35961 ft | 479 kts | 176° |
| 2026-04-29 12:26 | -28.19297 | -64.84919 | 35970 ft | 479 kts | 176° |
| 2026-04-29 12:27 | -28.25880 | -64.83696 | 35971 ft | 479 kts | 176° |
| 2026-04-29 12:27 | -28.32451 | -64.82474 | 35971 ft | 479 kts | 176° |
| 2026-04-29 12:28 | -28.37926 | -64.81455 | 35971 ft | 479 kts | 176° |
| 2026-04-29 12:28 | -28.44491 | -64.80231 | 35980 ft | 479 kts | 176° |
| 2026-04-29 12:29 | -28.51068 | -64.79003 | 35981 ft | 479 kts | 177° |
| 2026-04-29 12:29 | -28.57630 | -64.77776 | 35980 ft | 478 kts | 177° |
| 2026-04-29 12:30 | -28.64164 | -64.76553 | 35996 ft | 478 kts | 177° |
| 2026-04-29 12:30 | -28.70723 | -64.75199 | 35997 ft | 479 kts | 175° |
| 2026-04-29 12:31 | -28.77250 | -64.73745 | 36008 ft | 478 kts | 175° |
| 2026-04-29 12:31 | -28.83794 | -64.72305 | 36009 ft | 478 kts | 175° |
| 2026-04-29 12:32 | -28.90311 | -64.70892 | 36006 ft | 477 kts | 176° |
| 2026-04-29 12:32 | -28.96825 | -64.69486 | 36009 ft | 476 kts | 176° |
| 2026-04-29 12:33 | -29.03342 | -64.68078 | 36006 ft | 476 kts | 176° |
| 2026-04-29 12:33 | -29.09857 | -64.66667 | 36006 ft | 476 kts | 176° |
| 2026-04-29 12:34 | -29.16315 | -64.65266 | 36008 ft | 475 kts | 176° |
| 2026-04-29 12:34 | -29.22814 | -64.63855 | 36009 ft | 475 kts | 176° |
| 2026-04-29 12:35 | -29.29298 | -64.62445 | 36008 ft | 474 kts | 176° |
| 2026-04-29 12:35 | -29.35767 | -64.61039 | 36004 ft | 474 kts | 176° |
| 2026-04-29 12:36 | -29.42256 | -64.59624 | 36006 ft | 473 kts | 176° |
| 2026-04-29 12:36 | -29.48705 | -64.58214 | 36009 ft | 472 kts | 176° |
| 2026-04-29 12:37 | -29.55162 | -64.56802 | 36009 ft | 472 kts | 176° |
| 2026-04-29 12:37 | -29.61615 | -64.55396 | 36008 ft | 471 kts | 177° |
| 2026-04-29 12:38 | -29.68063 | -64.54154 | 36010 ft | 469 kts | 178° |
| 2026-04-29 12:38 | -29.74473 | -64.52985 | 36008 ft | 469 kts | 178° |
| 2026-04-29 12:39 | -29.80792 | -64.51812 | 36010 ft | 469 kts | 178° |
| 2026-04-29 12:39 | -29.85965 | -64.50837 | 36010 ft | 469 kts | 178° |
| 2026-04-29 12:40 | -29.91985 | -64.49694 | 36007 ft | 469 kts | 178° |
| 2026-04-29 12:40 | -29.98425 | -64.48439 | 36009 ft | 469 kts | 177° |
| 2026-04-29 12:41 | -30.04862 | -64.47050 | 36013 ft | 469 kts | 177° |
| 2026-04-29 12:41 | -30.11269 | -64.45651 | 36017 ft | 469 kts | 177° |
| 2026-04-29 12:42 | -30.17687 | -64.44270 | 36017 ft | 469 kts | 177° |
| 2026-04-29 12:42 | -30.24104 | -64.42901 | 36017 ft | 468 kts | 177° |
| 2026-04-29 12:43 | -30.30479 | -64.41538 | 36017 ft | 468 kts | 177° |
| 2026-04-29 12:43 | -30.36875 | -64.40167 | 36017 ft | 468 kts | 177° |
| 2026-04-29 12:44 | -30.43302 | -64.38795 | 36018 ft | 468 kts | 178° |
| 2026-04-29 12:44 | -30.49701 | -64.37463 | 36017 ft | 467 kts | 178° |
| 2026-04-29 12:45 | -30.56072 | -64.36144 | 36018 ft | 468 kts | 178° |
| 2026-04-29 12:45 | -30.62537 | -64.34799 | 36019 ft | 468 kts | 178° |
| 2026-04-29 12:46 | -30.68950 | -64.33461 | 36017 ft | 468 kts | 178° |
| 2026-04-29 12:46 | -30.75373 | -64.32118 | 36017 ft | 469 kts | 178° |
| 2026-04-29 12:47 | -30.81749 | -64.30783 | 36017 ft | 469 kts | 178° |
| 2026-04-29 12:47 | -30.88186 | -64.29433 | 36018 ft | 469 kts | 178° |
| 2026-04-29 12:48 | -30.94609 | -64.28085 | 36018 ft | 469 kts | 178° |
| 2026-04-29 12:48 | -31.01041 | -64.26730 | 36017 ft | 469 kts | 178° |
| 2026-04-29 12:49 | -31.07462 | -64.25378 | 36018 ft | 470 kts | 179° |
| 2026-04-29 12:49 | -31.13912 | -64.24018 | 36017 ft | 471 kts | 179° |
| 2026-04-29 12:50 | -31.20368 | -64.22658 | 36016 ft | 471 kts | 179° |
| 2026-04-29 12:50 | -31.26681 | -64.21306 | 36016 ft | 474 kts | 177° |
| 2026-04-29 12:50 | -31.29885 | -64.20256 | 36019 ft | 485 kts | 169° |
| 2026-04-29 12:51 | -31.33001 | -64.18617 | 36016 ft | 498 kts | 160° |
| 2026-04-29 12:51 | -31.38859 | -64.14089 | 36016 ft | 510 kts | 153° |
| 2026-04-29 12:52 | -31.44573 | -64.09099 | 36017 ft | 513 kts | 152° |
| 2026-04-29 12:52 | -31.50271 | -64.04084 | 36017 ft | 513 kts | 152° |
| 2026-04-29 12:53 | -31.56022 | -63.99087 | 36017 ft | 514 kts | 153° |
| 2026-04-29 12:53 | -31.61778 | -63.94116 | 36018 ft | 515 kts | 153° |
| 2026-04-29 12:54 | -31.67554 | -63.89124 | 36017 ft | 515 kts | 153° |
| 2026-04-29 12:54 | -31.73334 | -63.84119 | 36014 ft | 516 kts | 152° |
| 2026-04-29 12:55 | -31.79114 | -63.79109 | 36009 ft | 516 kts | 153° |
| 2026-04-29 12:55 | -31.84902 | -63.74088 | 36006 ft | 517 kts | 152° |
| 2026-04-29 12:56 | -31.90642 | -63.69088 | 36004 ft | 517 kts | 152° |
| 2026-04-29 12:56 | -31.96427 | -63.64045 | 36002 ft | 517 kts | 152° |
| 2026-04-29 12:57 | -32.02436 | -63.59620 | 35999 ft | 498 kts | 166° |
| 2026-04-29 12:57 | -32.05651 | -63.58271 | 36000 ft | 484 kts | 175° |
| 2026-04-29 12:57 | -32.08930 | -63.57568 | 35991 ft | 471 kts | 184° |
| 2026-04-29 12:57 | -32.12151 | -63.57505 | 35995 ft | 458 kts | 193° |
| 2026-04-29 12:58 | -32.15330 | -63.57845 | 35995 ft | 454 kts | 195° |
| 2026-04-29 12:58 | -32.21579 | -63.58760 | 35995 ft | 453 kts | 197° |
| 2026-04-29 12:59 | -32.27795 | -63.59738 | 35980 ft | 453 kts | 196° |
| 2026-04-29 12:59 | -32.33602 | -63.60629 | 35980 ft | 454 kts | 196° |
| 2026-04-29 13:00 | -32.39893 | -63.61573 | 35973 ft | 454 kts | 196° |
| 2026-04-29 13:00 | -32.46131 | -63.62505 | 35971 ft | 455 kts | 196° |
| 2026-04-29 13:01 | -32.52422 | -63.63444 | 35971 ft | 456 kts | 196° |
| 2026-04-29 13:01 | -32.58711 | -63.64384 | 35962 ft | 456 kts | 196° |
| 2026-04-29 13:02 | -32.65004 | -63.65329 | 35962 ft | 456 kts | 196° |
| 2026-04-29 13:02 | -32.71304 | -63.66274 | 35960 ft | 457 kts | 196° |
| 2026-04-29 13:03 | -32.77614 | -63.67223 | 35953 ft | 457 kts | 196° |
| 2026-04-29 13:03 | -32.83933 | -63.68173 | 35952 ft | 458 kts | 196° |
| 2026-04-29 13:04 | -32.90272 | -63.69130 | 35952 ft | 458 kts | 195° |
| 2026-04-29 13:04 | -32.96604 | -63.70085 | 35953 ft | 459 kts | 195° |
| 2026-04-29 13:05 | -33.02901 | -63.71043 | 35944 ft | 459 kts | 195° |
| 2026-04-29 13:05 | -33.09242 | -63.72004 | 35943 ft | 460 kts | 195° |
| 2026-04-29 13:06 | -33.15600 | -63.72966 | 35943 ft | 460 kts | 195° |
| 2026-04-29 13:06 | -33.21938 | -63.73928 | 35944 ft | 460 kts | 195° |
| 2026-04-29 13:07 | -33.28293 | -63.74897 | 35943 ft | 460 kts | 195° |
| 2026-04-29 13:07 | -33.34658 | -63.75865 | 35943 ft | 461 kts | 195° |
| 2026-04-29 13:08 | -33.41027 | -63.76837 | 35943 ft | 461 kts | 195° |
| 2026-04-29 13:08 | -33.47378 | -63.77808 | 35943 ft | 461 kts | 195° |
| 2026-04-29 13:09 | -33.53748 | -63.78783 | 35943 ft | 461 kts | 195° |
| 2026-04-29 13:09 | -33.60133 | -63.79760 | 35943 ft | 462 kts | 195° |
| 2026-04-29 13:10 | -33.66513 | -63.80738 | 35948 ft | 462 kts | 195° |
| 2026-04-29 13:10 | -33.72890 | -63.81719 | 35953 ft | 462 kts | 195° |
| 2026-04-29 13:11 | -33.79257 | -63.82699 | 35935 ft | 461 kts | 195° |
| 2026-04-29 13:11 | -33.85622 | -63.83680 | 35934 ft | 461 kts | 195° |
| 2026-04-29 13:12 | -33.91999 | -63.84666 | 35934 ft | 461 kts | 195° |
| 2026-04-29 13:12 | -33.98355 | -63.85649 | 35934 ft | 461 kts | 195° |
| 2026-04-29 13:13 | -34.04722 | -63.86635 | 35934 ft | 461 kts | 195° |
| 2026-04-29 13:13 | -34.11085 | -63.87629 | 35934 ft | 461 kts | 195° |
| 2026-04-29 13:14 | -34.16377 | -63.88445 | 35934 ft | 461 kts | 195° |
| 2026-04-29 13:14 | -34.22740 | -63.89429 | 35924 ft | 461 kts | 195° |
| 2026-04-29 13:15 | -34.29115 | -63.90422 | 35925 ft | 462 kts | 195° |
| 2026-04-29 13:15 | -34.35480 | -63.91422 | 35927 ft | 462 kts | 195° |
| 2026-04-29 13:16 | -34.41868 | -63.92418 | 35924 ft | 462 kts | 195° |
| 2026-04-29 13:16 | -34.48251 | -63.93414 | 35926 ft | 463 kts | 195° |
| 2026-04-29 13:17 | -34.54602 | -63.94410 | 35924 ft | 463 kts | 195° |
| 2026-04-29 13:17 | -34.61000 | -63.95415 | 35935 ft | 463 kts | 195° |
| 2026-04-29 13:18 | -34.67403 | -63.96422 | 35936 ft | 463 kts | 195° |
| 2026-04-29 13:18 | -34.73793 | -63.97431 | 35933 ft | 464 kts | 195° |
| 2026-04-29 13:19 | -34.80205 | -63.98443 | 35934 ft | 464 kts | 195° |
| 2026-04-29 13:19 | -34.86621 | -63.99463 | 35924 ft | 465 kts | 195° |
| 2026-04-29 13:20 | -34.93024 | -64.00477 | 35925 ft | 465 kts | 194° |
| 2026-04-29 13:20 | -34.99431 | -64.01488 | 35928 ft | 463 kts | 194° |
| 2026-04-29 13:21 | -35.05780 | -64.02495 | 35925 ft | 462 kts | 194° |
| 2026-04-29 13:21 | -35.12159 | -64.03512 | 35924 ft | 462 kts | 194° |
| 2026-04-29 13:22 | -35.18546 | -64.04531 | 35924 ft | 463 kts | 194° |
| 2026-04-29 13:22 | -35.24941 | -64.05554 | 35926 ft | 464 kts | 194° |
| 2026-04-29 13:23 | -35.31348 | -64.06578 | 35915 ft | 464 kts | 194° |
| 2026-04-29 13:23 | -35.37757 | -64.07602 | 35916 ft | 465 kts | 194° |
| 2026-04-29 13:24 | -35.44158 | -64.08629 | 35916 ft | 465 kts | 194° |
| 2026-04-29 13:24 | -35.50546 | -64.09657 | 35915 ft | 465 kts | 194° |
| 2026-04-29 13:25 | -35.56974 | -64.10694 | 35916 ft | 466 kts | 194° |
| 2026-04-29 13:25 | -35.66632 | -64.12249 | 35915 ft | 467 kts | 194° |
| 2026-04-29 13:26 | -35.73072 | -64.13288 | 35915 ft | 467 kts | 194° |
| 2026-04-29 13:26 | -35.79504 | -64.14330 | 35915 ft | 467 kts | 194° |
| 2026-04-29 13:27 | -35.85964 | -64.15380 | 35915 ft | 467 kts | 194° |
| 2026-04-29 13:27 | -35.91302 | -64.16245 | 35915 ft | 467 kts | 194° |
| 2026-04-29 13:28 | -35.98848 | -64.17470 | 35915 ft | 467 kts | 194° |
| 2026-04-29 13:28 | -36.05245 | -64.18512 | 35915 ft | 467 kts | 195° |
| 2026-04-29 13:29 | -36.11679 | -64.19565 | 35916 ft | 467 kts | 195° |
| 2026-04-29 13:29 | -36.17355 | -64.20494 | 35915 ft | 467 kts | 194° |
| 2026-04-29 13:30 | -36.23780 | -64.21546 | 35916 ft | 467 kts | 195° |
| 2026-04-29 13:30 | -36.30228 | -64.22602 | 35916 ft | 466 kts | 194° |
| 2026-04-29 13:31 | -36.36650 | -64.23657 | 35917 ft | 466 kts | 194° |
| 2026-04-29 13:31 | -36.43086 | -64.24716 | 35915 ft | 466 kts | 194° |
| 2026-04-29 13:32 | -36.49513 | -64.25776 | 35915 ft | 466 kts | 194° |
| 2026-04-29 13:32 | -36.55931 | -64.26836 | 35916 ft | 465 kts | 194° |
| 2026-04-29 13:33 | -36.62348 | -64.27859 | 35916 ft | 466 kts | 193° |
| 2026-04-29 13:33 | -36.68792 | -64.28672 | 35915 ft | 466 kts | 192° |
| 2026-04-29 13:34 | -36.75244 | -64.29461 | 35915 ft | 465 kts | 193° |
| 2026-04-29 13:34 | -36.81698 | -64.30286 | 35909 ft | 465 kts | 193° |
| 2026-04-29 13:35 | -36.88135 | -64.31128 | 35905 ft | 464 kts | 193° |
| 2026-04-29 13:35 | -36.94549 | -64.31974 | 35906 ft | 464 kts | 193° |
| 2026-04-29 13:36 | -37.00966 | -64.32821 | 35905 ft | 463 kts | 193° |
| 2026-04-29 13:36 | -37.07374 | -64.33666 | 35906 ft | 463 kts | 193° |
| 2026-04-29 13:37 | -37.13743 | -64.34507 | 35906 ft | 463 kts | 193° |
| 2026-04-29 13:37 | -37.20183 | -64.35359 | 35906 ft | 462 kts | 193° |
| 2026-04-29 13:38 | -37.26574 | -64.36205 | 35907 ft | 462 kts | 193° |
| 2026-04-29 13:38 | -37.32916 | -64.37048 | 35906 ft | 462 kts | 193° |
| 2026-04-29 13:39 | -37.39319 | -64.37921 | 35906 ft | 461 kts | 193° |
| 2026-04-29 13:39 | -37.45706 | -64.38807 | 35900 ft | 462 kts | 193° |
| 2026-04-29 13:40 | -37.52095 | -64.39692 | 35897 ft | 462 kts | 193° |
| 2026-04-29 13:40 | -37.58468 | -64.40577 | 35898 ft | 462 kts | 193° |
| 2026-04-29 13:41 | -37.64854 | -64.41466 | 35897 ft | 462 kts | 193° |
| 2026-04-29 13:41 | -37.71245 | -64.42355 | 35897 ft | 462 kts | 193° |
| 2026-04-29 13:42 | -37.77632 | -64.43246 | 35891 ft | 461 kts | 193° |
| 2026-04-29 13:42 | -37.84031 | -64.44139 | 35887 ft | 462 kts | 193° |
| 2026-04-29 13:43 | -37.90399 | -64.45030 | 35889 ft | 461 kts | 193° |
| 2026-04-29 13:43 | -37.96796 | -64.45926 | 35889 ft | 462 kts | 193° |
| 2026-04-29 13:44 | -38.03131 | -64.46813 | 35888 ft | 461 kts | 193° |
| 2026-04-29 13:44 | -38.09513 | -64.47710 | 35880 ft | 460 kts | 193° |
| 2026-04-29 13:45 | -38.15876 | -64.48614 | 35880 ft | 461 kts | 193° |
| 2026-04-29 13:45 | -38.22257 | -64.49513 | 35882 ft | 460 kts | 193° |
| 2026-04-29 13:46 | -38.28633 | -64.50413 | 35881 ft | 460 kts | 193° |
| 2026-04-29 13:46 | -38.34988 | -64.51312 | 35881 ft | 459 kts | 193° |
| 2026-04-29 13:47 | -38.41327 | -64.52211 | 35880 ft | 459 kts | 193° |
| 2026-04-29 13:47 | -38.47669 | -64.53111 | 35880 ft | 458 kts | 193° |
| 2026-04-29 13:48 | -38.54003 | -64.54014 | 35879 ft | 458 kts | 193° |
| 2026-04-29 13:48 | -38.60328 | -64.54919 | 35866 ft | 457 kts | 193° |
| 2026-04-29 13:49 | -38.66142 | -64.55751 | 35881 ft | 457 kts | 193° |
| 2026-04-29 13:49 | -38.72048 | -64.56598 | 35881 ft | 456 kts | 193° |
| 2026-04-29 13:50 | -38.78314 | -64.57495 | 35858 ft | 456 kts | 193° |
| 2026-04-29 13:50 | -38.84603 | -64.58397 | 35856 ft | 455 kts | 193° |
| 2026-04-29 13:51 | -38.90892 | -64.59301 | 35863 ft | 455 kts | 193° |
| 2026-04-29 13:51 | -38.97035 | -64.60177 | 35850 ft | 454 kts | 193° |
| 2026-04-29 13:52 | -39.01834 | -64.60861 | 35845 ft | 454 kts | 193° |
| 2026-04-29 13:52 | -39.07932 | -64.61734 | 35811 ft | 453 kts | 193° |
| 2026-04-29 13:53 | -39.13874 | -64.62588 | 35785 ft | 452 kts | 193° |
| 2026-04-29 13:53 | -39.20141 | -64.63490 | 35783 ft | 452 kts | 193° |
| 2026-04-29 13:54 | -39.26386 | -64.64392 | 35779 ft | 453 kts | 193° |
| 2026-04-29 13:54 | -39.32658 | -64.65299 | 35783 ft | 452 kts | 193° |
| 2026-04-29 13:55 | -39.38903 | -64.66202 | 35781 ft | 452 kts | 193° |
| 2026-04-29 13:55 | -39.45138 | -64.67106 | 35766 ft | 451 kts | 193° |
| 2026-04-29 13:56 | -39.51383 | -64.68013 | 35767 ft | 452 kts | 193° |
| 2026-04-29 13:56 | -39.57628 | -64.68923 | 35768 ft | 452 kts | 193° |
| 2026-04-29 13:57 | -39.63881 | -64.69836 | 35766 ft | 451 kts | 193° |
| 2026-04-29 13:57 | -39.69057 | -64.70590 | 35768 ft | 451 kts | 193° |
| 2026-04-29 13:58 | -39.76309 | -64.71652 | 35768 ft | 451 kts | 193° |
| 2026-04-29 13:58 | -39.82544 | -64.72564 | 35769 ft | 451 kts | 193° |
| 2026-04-29 13:59 | -39.88791 | -64.73470 | 35761 ft | 451 kts | 193° |
| 2026-04-29 13:59 | -39.95030 | -64.74376 | 35757 ft | 451 kts | 193° |
| 2026-04-29 14:00 | -39.99674 | -64.75053 | 35756 ft | 451 kts | 193° |
| 2026-04-29 14:00 | -40.05914 | -64.75967 | 35761 ft | 450 kts | 193° |
| 2026-04-29 14:01 | -40.12135 | -64.76887 | 35755 ft | 450 kts | 193° |
| 2026-04-29 14:01 | -40.18364 | -64.77811 | 35750 ft | 450 kts | 193° |
| 2026-04-29 14:02 | -40.24580 | -64.78732 | 35755 ft | 450 kts | 193° |
| 2026-04-29 14:02 | -40.30813 | -64.79656 | 35755 ft | 450 kts | 193° |
| 2026-04-29 14:03 | -40.37031 | -64.80574 | 35746 ft | 450 kts | 192° |
| 2026-04-29 14:03 | -40.43219 | -64.81493 | 35751 ft | 450 kts | 193° |
| 2026-04-29 14:04 | -40.49490 | -64.82433 | 35745 ft | 450 kts | 193° |
| 2026-04-29 14:04 | -40.55677 | -64.83355 | 35749 ft | 450 kts | 193° |
| 2026-04-29 14:05 | -40.61905 | -64.84292 | 35750 ft | 450 kts | 193° |
| 2026-04-29 14:05 | -40.68127 | -64.85233 | 35749 ft | 451 kts | 193° |
| 2026-04-29 14:06 | -40.74366 | -64.86176 | 35744 ft | 451 kts | 193° |
| 2026-04-29 14:06 | -40.80303 | -64.87071 | 35739 ft | 451 kts | 193° |
| 2026-04-29 14:07 | -40.86546 | -64.88016 | 35739 ft | 451 kts | 193° |
| 2026-04-29 14:07 | -40.92797 | -64.88961 | 35732 ft | 451 kts | 193° |
| 2026-04-29 14:08 | -40.99035 | -64.89907 | 35730 ft | 451 kts | 193° |
| 2026-04-29 14:08 | -41.05228 | -64.90848 | 35729 ft | 451 kts | 193° |
| 2026-04-29 14:09 | -41.11455 | -64.91797 | 35730 ft | 451 kts | 193° |
| 2026-04-29 14:09 | -41.17686 | -64.92749 | 35730 ft | 452 kts | 193° |
| 2026-04-29 14:10 | -41.23947 | -64.93705 | 35730 ft | 452 kts | 192° |
| 2026-04-29 14:10 | -41.30210 | -64.94663 | 35729 ft | 453 kts | 193° |
| 2026-04-29 14:11 | -41.36465 | -64.95622 | 35731 ft | 453 kts | 193° |
| 2026-04-29 14:11 | -41.42615 | -64.96544 | 35729 ft | 453 kts | 192° |
| 2026-04-29 14:12 | -41.48872 | -64.97511 | 35731 ft | 453 kts | 192° |
| 2026-04-29 14:12 | -41.55137 | -64.98471 | 35730 ft | 452 kts | 192° |
| 2026-04-29 14:13 | -41.61341 | -64.99446 | 35731 ft | 453 kts | 192° |
| 2026-04-29 14:13 | -41.67624 | -65.00430 | 35728 ft | 453 kts | 192° |
| 2026-04-29 14:14 | -41.73878 | -65.01402 | 35730 ft | 453 kts | 192° |
| 2026-04-29 14:14 | -41.80161 | -65.02356 | 35731 ft | 453 kts | 192° |
| 2026-04-29 14:15 | -41.86389 | -65.03321 | 35731 ft | 453 kts | 192° |
| 2026-04-29 14:15 | -41.92641 | -65.04316 | 35729 ft | 453 kts | 192° |
| 2026-04-29 14:16 | -41.98938 | -65.05309 | 35731 ft | 453 kts | 192° |
| 2026-04-29 14:16 | -42.05133 | -65.06276 | 35720 ft | 454 kts | 192° |
| 2026-04-29 14:17 | -42.11431 | -65.07249 | 35720 ft | 457 kts | 192° |
| 2026-04-29 14:17 | -42.17745 | -65.08249 | 35745 ft | 457 kts | 192° |
| 2026-04-29 14:18 | -42.24060 | -65.09243 | 35747 ft | 456 kts | 192° |
| 2026-04-29 14:18 | -42.30388 | -65.10221 | 35747 ft | 456 kts | 191° |
| 2026-04-29 14:19 | -42.36702 | -65.11175 | 35748 ft | 457 kts | 191° |
| 2026-04-29 14:19 | -42.42973 | -65.12128 | 35751 ft | 456 kts | 191° |
| 2026-04-29 14:20 | -42.49293 | -65.13148 | 35747 ft | 456 kts | 191° |
| 2026-04-29 14:20 | -42.55599 | -65.14204 | 35749 ft | 457 kts | 192° |
| 2026-04-29 14:21 | -42.61905 | -65.15257 | 35749 ft | 457 kts | 192° |
| 2026-04-29 14:21 | -42.67859 | -65.16224 | 35747 ft | 457 kts | 192° |
| 2026-04-29 14:22 | -42.74182 | -65.17228 | 35748 ft | 458 kts | 192° |
| 2026-04-29 14:22 | -42.80520 | -65.18249 | 35747 ft | 458 kts | 192° |
| 2026-04-29 14:23 | -42.86860 | -65.19273 | 35749 ft | 459 kts | 192° |
| 2026-04-29 14:23 | -42.93172 | -65.20293 | 35747 ft | 459 kts | 192° |
| 2026-04-29 14:24 | -42.99501 | -65.21315 | 35750 ft | 459 kts | 192° |
| 2026-04-29 14:24 | -43.05810 | -65.22335 | 35748 ft | 460 kts | 192° |
| 2026-04-29 14:25 | -43.12172 | -65.23368 | 35748 ft | 461 kts | 192° |
| 2026-04-29 14:25 | -43.18565 | -65.24407 | 35750 ft | 461 kts | 192° |
| 2026-04-29 14:26 | -43.24928 | -65.25506 | 35750 ft | 460 kts | 193° |
| 2026-04-29 14:26 | -43.31258 | -65.26781 | 35749 ft | 461 kts | 193° |
| 2026-04-29 14:27 | -43.37601 | -65.28069 | 35747 ft | 461 kts | 193° |
| 2026-04-29 14:28 | -43.47141 | -65.29926 | 35746 ft | 462 kts | 192° |
| 2026-04-29 14:28 | -43.53512 | -65.31141 | 35748 ft | 462 kts | 192° |
| 2026-04-29 14:29 | -43.59887 | -65.32395 | 35748 ft | 462 kts | 192° |
| 2026-04-29 14:29 | -43.66208 | -65.33630 | 35747 ft | 461 kts | 192° |
| 2026-04-29 14:30 | -43.72565 | -65.34876 | 35749 ft | 461 kts | 192° |
| 2026-04-29 14:30 | -43.78924 | -65.36136 | 35748 ft | 461 kts | 192° |
| 2026-04-29 14:31 | -43.85283 | -65.37399 | 35748 ft | 461 kts | 192° |
| 2026-04-29 14:31 | -43.91631 | -65.38699 | 35740 ft | 461 kts | 193° |
| 2026-04-29 14:32 | -43.97981 | -65.40040 | 35740 ft | 461 kts | 193° |
| 2026-04-29 14:32 | -44.03596 | -65.41178 | 35738 ft | 461 kts | 192° |
| 2026-04-29 14:33 | -44.09852 | -65.42402 | 35740 ft | 463 kts | 192° |
| 2026-04-29 14:33 | -44.16244 | -65.43665 | 35738 ft | 464 kts | 192° |
| 2026-04-29 14:34 | -44.22634 | -65.44939 | 35739 ft | 464 kts | 193° |
| 2026-04-29 14:34 | -44.29001 | -65.46248 | 35730 ft | 463 kts | 192° |
| 2026-04-29 14:35 | -44.35403 | -65.47525 | 35728 ft | 464 kts | 192° |
| 2026-04-29 14:35 | -44.41797 | -65.48815 | 35728 ft | 465 kts | 192° |
| 2026-04-29 14:36 | -44.48162 | -65.50140 | 35731 ft | 465 kts | 193° |
| 2026-04-29 14:36 | -44.54563 | -65.51505 | 35731 ft | 465 kts | 193° |
| 2026-04-29 14:37 | -44.60974 | -65.52800 | 35718 ft | 466 kts | 192° |
| 2026-04-29 14:37 | -44.67396 | -65.54053 | 35719 ft | 466 kts | 191° |
| 2026-04-29 14:38 | -44.73832 | -65.55334 | 35721 ft | 467 kts | 192° |
| 2026-04-29 14:38 | -44.80275 | -65.56642 | 35718 ft | 467 kts | 191° |
| 2026-04-29 14:39 | -44.86690 | -65.57954 | 35713 ft | 468 kts | 192° |
| 2026-04-29 14:39 | -44.93132 | -65.59329 | 35710 ft | 468 kts | 192° |
| 2026-04-29 14:40 | -44.99364 | -65.60642 | 35710 ft | 469 kts | 192° |
| 2026-04-29 14:40 | -45.05815 | -65.62022 | 35712 ft | 469 kts | 193° |
| 2026-04-29 14:41 | -45.12277 | -65.63422 | 35710 ft | 470 kts | 193° |
| 2026-04-29 14:41 | -45.18759 | -65.64749 | 35709 ft | 471 kts | 192° |
| 2026-04-29 14:42 | -45.25253 | -65.66051 | 35701 ft | 471 kts | 191° |
| 2026-04-29 14:42 | -45.30639 | -65.67147 | 35702 ft | 471 kts | 192° |
| 2026-04-29 14:43 | -45.38226 | -65.68730 | 35701 ft | 471 kts | 192° |
| 2026-04-29 14:43 | -45.44689 | -65.70099 | 35701 ft | 471 kts | 191° |
| 2026-04-29 14:44 | -45.51146 | -65.71462 | 35702 ft | 471 kts | 192° |
| 2026-04-29 14:44 | -45.56571 | -65.72623 | 35703 ft | 471 kts | 192° |
| 2026-04-29 14:45 | -45.64124 | -65.74239 | 35701 ft | 472 kts | 192° |
| 2026-04-29 14:45 | -45.69569 | -65.75401 | 35701 ft | 472 kts | 192° |
| 2026-04-29 14:46 | -45.76067 | -65.76786 | 35699 ft | 472 kts | 192° |
| 2026-04-29 14:46 | -45.82543 | -65.78166 | 35692 ft | 471 kts | 192° |
| 2026-04-29 14:47 | -45.89004 | -65.79540 | 35692 ft | 471 kts | 192° |
| 2026-04-29 14:47 | -45.95482 | -65.80920 | 35692 ft | 471 kts | 192° |
| 2026-04-29 14:48 | -46.01980 | -65.82316 | 35692 ft | 471 kts | 192° |
| 2026-04-29 14:48 | -46.08469 | -65.83726 | 35693 ft | 471 kts | 192° |
| 2026-04-29 14:49 | -46.14948 | -65.85140 | 35674 ft | 471 kts | 192° |
| 2026-04-29 14:49 | -46.21445 | -65.86551 | 35673 ft | 472 kts | 192° |
| 2026-04-29 14:50 | -46.27927 | -65.87857 | 35673 ft | 473 kts | 191° |
| 2026-04-29 14:50 | -46.34466 | -65.89049 | 35673 ft | 473 kts | 191° |
| 2026-04-29 14:51 | -46.41006 | -65.90252 | 35674 ft | 474 kts | 191° |
| 2026-04-29 14:51 | -46.47556 | -65.91483 | 35675 ft | 474 kts | 191° |
| 2026-04-29 14:52 | -46.54105 | -65.92726 | 35672 ft | 475 kts | 191° |
| 2026-04-29 14:52 | -46.60638 | -65.93971 | 35663 ft | 476 kts | 191° |
| 2026-04-29 14:53 | -46.67208 | -65.95221 | 35664 ft | 476 kts | 191° |
| 2026-04-29 14:53 | -46.73830 | -65.96485 | 35664 ft | 477 kts | 191° |
| 2026-04-29 14:54 | -46.80389 | -65.97721 | 35665 ft | 479 kts | 189° |
| 2026-04-29 14:54 | -46.87010 | -65.98961 | 35657 ft | 480 kts | 191° |
| 2026-04-29 14:55 | -46.93632 | -66.00264 | 35654 ft | 480 kts | 191° |
| 2026-04-29 14:55 | -47.00235 | -66.01546 | 35659 ft | 478 kts | 191° |
| 2026-04-29 14:56 | -47.06832 | -66.02807 | 35659 ft | 477 kts | 191° |
| 2026-04-29 14:56 | -47.13404 | -66.04100 | 35646 ft | 478 kts | 191° |
| 2026-04-29 14:57 | -47.19972 | -66.05389 | 35647 ft | 479 kts | 190° |
| 2026-04-29 14:57 | -47.26596 | -66.06673 | 35650 ft | 480 kts | 191° |
| 2026-04-29 14:58 | -47.33224 | -66.07962 | 35640 ft | 481 kts | 191° |
| 2026-04-29 14:58 | -47.39859 | -66.09271 | 35639 ft | 481 kts | 191° |
| 2026-04-29 14:59 | -47.46500 | -66.10577 | 35634 ft | 483 kts | 191° |
| 2026-04-29 14:59 | -47.53187 | -66.11901 | 35635 ft | 483 kts | 191° |
| 2026-04-29 15:00 | -47.59371 | -66.13123 | 35625 ft | 484 kts | 191° |
| 2026-04-29 15:00 | -47.66078 | -66.14454 | 35615 ft | 485 kts | 191° |
| 2026-04-29 15:01 | -47.72777 | -66.15778 | 35613 ft | 485 kts | 191° |
| 2026-04-29 15:01 | -47.79429 | -66.17095 | 35606 ft | 486 kts | 190° |
| 2026-04-29 15:02 | -47.86141 | -66.18423 | 35603 ft | 486 kts | 191° |
| 2026-04-29 15:02 | -47.92849 | -66.19767 | 35599 ft | 486 kts | 191° |
| 2026-04-29 15:03 | -47.99561 | -66.21117 | 35593 ft | 487 kts | 191° |
| 2026-04-29 15:03 | -48.06245 | -66.22454 | 35588 ft | 483 kts | 191° |
| 2026-04-29 15:04 | -48.12916 | -66.23798 | 35583 ft | 482 kts | 191° |
| 2026-04-29 15:04 | -48.19554 | -66.25147 | 35580 ft | 481 kts | 191° |
| 2026-04-29 15:05 | -48.26185 | -66.26494 | 35571 ft | 482 kts | 191° |
| 2026-04-29 15:05 | -48.32793 | -66.27835 | 35568 ft | 482 kts | 191° |
| 2026-04-29 15:06 | -48.39432 | -66.29183 | 35561 ft | 481 kts | 191° |
| 2026-04-29 15:06 | -48.46082 | -66.30544 | 35560 ft | 482 kts | 191° |
| 2026-04-29 15:07 | -48.52736 | -66.31909 | 35552 ft | 482 kts | 191° |
| 2026-04-29 15:07 | -48.59392 | -66.33278 | 35545 ft | 482 kts | 191° |
| 2026-04-29 15:08 | -48.66037 | -66.34645 | 35540 ft | 483 kts | 191° |
| 2026-04-29 15:08 | -48.72688 | -66.36016 | 35534 ft | 483 kts | 191° |
| 2026-04-29 15:09 | -48.79360 | -66.37397 | 35527 ft | 483 kts | 191° |
| 2026-04-29 15:09 | -48.86012 | -66.38778 | 35524 ft | 483 kts | 191° |
| 2026-04-29 15:10 | -48.92692 | -66.40169 | 35516 ft | 484 kts | 191° |
| 2026-04-29 15:10 | -48.99370 | -66.41563 | 35516 ft | 484 kts | 191° |
| 2026-04-29 15:11 | -49.06049 | -66.42955 | 35512 ft | 485 kts | 191° |
| 2026-04-29 15:11 | -49.12725 | -66.44352 | 35500 ft | 485 kts | 191° |
| 2026-04-29 15:12 | -49.19432 | -66.45763 | 35491 ft | 486 kts | 191° |
| 2026-04-29 15:12 | -49.26085 | -66.47171 | 35484 ft | 486 kts | 191° |
| 2026-04-29 15:13 | -49.32792 | -66.48594 | 35491 ft | 487 kts | 191° |
| 2026-04-29 15:13 | -49.39518 | -66.50022 | 35475 ft | 488 kts | 191° |
| 2026-04-29 15:14 | -49.46256 | -66.51453 | 35479 ft | 488 kts | 191° |
| 2026-04-29 15:14 | -49.52984 | -66.52885 | 35468 ft | 488 kts | 191° |
| 2026-04-29 15:15 | -49.59721 | -66.54323 | 35468 ft | 489 kts | 191° |
| 2026-04-29 15:15 | -49.66460 | -66.55760 | 35460 ft | 489 kts | 191° |
| 2026-04-29 15:16 | -49.73202 | -66.57212 | 35459 ft | 489 kts | 191° |
| 2026-04-29 15:16 | -49.79949 | -66.58675 | 35448 ft | 489 kts | 191° |
| 2026-04-29 15:17 | -49.86658 | -66.60128 | 35448 ft | 489 kts | 191° |
| 2026-04-29 15:17 | -49.93409 | -66.61592 | 35445 ft | 489 kts | 191° |
| 2026-04-29 15:18 | -50.00165 | -66.63060 | 35439 ft | 489 kts | 191° |
| 2026-04-29 15:18 | -50.06910 | -66.64532 | 35439 ft | 491 kts | 191° |
| 2026-04-29 15:19 | -50.13658 | -66.66012 | 35431 ft | 492 kts | 191° |
| 2026-04-29 15:19 | -50.20445 | -66.67499 | 35430 ft | 492 kts | 191° |
| 2026-04-29 15:20 | -50.27227 | -66.68988 | 35430 ft | 492 kts | 191° |
| 2026-04-29 15:20 | -50.34013 | -66.70526 | 35420 ft | 492 kts | 191° |
| 2026-04-29 15:21 | -50.40790 | -66.72029 | 35421 ft | 492 kts | 191° |
| 2026-04-29 15:21 | -50.47567 | -66.73519 | 35421 ft | 492 kts | 191° |
| 2026-04-29 15:22 | -50.54368 | -66.75026 | 35413 ft | 492 kts | 191° |
| 2026-04-29 15:22 | -50.61141 | -66.76559 | 35413 ft | 493 kts | 192° |
| 2026-04-29 15:23 | -50.67929 | -66.78139 | 35413 ft | 493 kts | 192° |
| 2026-04-29 15:23 | -50.74720 | -66.79684 | 35412 ft | 493 kts | 191° |
| 2026-04-29 15:24 | -50.81521 | -66.81172 | 35411 ft | 494 kts | 191° |
| 2026-04-29 15:24 | -50.88281 | -66.82645 | 35402 ft | 494 kts | 191° |
| 2026-04-29 15:25 | -50.95080 | -66.84167 | 35401 ft | 494 kts | 191° |
| 2026-04-29 15:25 | -51.01887 | -66.85707 | 35401 ft | 494 kts | 191° |
| 2026-04-29 15:26 | -51.08712 | -66.87266 | 35401 ft | 494 kts | 191° |
| 2026-04-29 15:26 | -51.15509 | -66.88872 | 35394 ft | 494 kts | 191° |
| 2026-04-29 15:27 | -51.22328 | -66.90486 | 35392 ft | 495 kts | 192° |
| 2026-04-29 15:27 | -51.29155 | -66.92086 | 35393 ft | 495 kts | 192° |
| 2026-04-29 15:28 | -51.35975 | -66.93665 | 35392 ft | 496 kts | 191° |
| 2026-04-29 15:28 | -51.42811 | -66.95245 | 35393 ft | 496 kts | 191° |
| 2026-04-29 15:29 | -51.49641 | -66.96830 | 35393 ft | 496 kts | 191° |
| 2026-04-29 15:30 | -51.62157 | -66.99747 | 35392 ft | 497 kts | 191° |
| 2026-04-29 15:30 | -51.69004 | -67.01351 | 35378 ft | 497 kts | 191° |
| 2026-04-29 15:31 | -51.75840 | -67.02956 | 35346 ft | 497 kts | 191° |
| 2026-04-29 15:31 | -51.82685 | -67.04568 | 35349 ft | 497 kts | 191° |
| 2026-04-29 15:32 | -51.89527 | -67.06186 | 35347 ft | 497 kts | 191° |
| 2026-04-29 15:32 | -51.96326 | -67.07797 | 35347 ft | 497 kts | 191° |
| 2026-04-29 15:33 | -52.03193 | -67.09431 | 35348 ft | 497 kts | 191° |
| 2026-04-29 15:33 | -52.10013 | -67.11061 | 35333 ft | 499 kts | 191° |
| 2026-04-29 15:34 | -52.16895 | -67.12710 | 35331 ft | 500 kts | 191° |
| 2026-04-29 15:34 | -52.23791 | -67.14361 | 35326 ft | 500 kts | 191° |
| 2026-04-29 15:35 | -52.30661 | -67.16012 | 35326 ft | 500 kts | 191° |
| 2026-04-29 15:35 | -52.37541 | -67.17676 | 35325 ft | 500 kts | 191° |
| 2026-04-29 15:36 | -52.44423 | -67.19345 | 35316 ft | 500 kts | 191° |
| 2026-04-29 15:36 | -52.51313 | -67.21019 | 35316 ft | 500 kts | 191° |
| 2026-04-29 15:37 | -52.58206 | -67.22673 | 35316 ft | 500 kts | 191° |
| 2026-04-29 15:37 | -52.65097 | -67.24354 | 35305 ft | 500 kts | 191° |
| 2026-04-29 15:38 | -52.72008 | -67.26071 | 35308 ft | 500 kts | 191° |
| 2026-04-29 15:38 | -52.78738 | -67.28571 | 35300 ft | 498 kts | 197° |
| 2026-04-29 15:39 | -52.85431 | -67.31568 | 35299 ft | 498 kts | 198° |
| 2026-04-29 15:39 | -52.92098 | -67.34631 | 35298 ft | 498 kts | 198° |
| 2026-04-29 15:40 | -52.98782 | -67.37708 | 35292 ft | 499 kts | 198° |
| 2026-04-29 15:40 | -53.05483 | -67.40789 | 35285 ft | 499 kts | 198° |
| 2026-04-29 15:41 | -53.12190 | -67.43880 | 35291 ft | 499 kts | 198° |
| 2026-04-29 15:41 | -53.18884 | -67.46974 | 35286 ft | 499 kts | 198° |
| 2026-04-29 15:42 | -53.25585 | -67.50081 | 35285 ft | 500 kts | 198° |
| 2026-04-29 15:42 | -53.32292 | -67.53200 | 35285 ft | 500 kts | 198° |
| 2026-04-29 15:43 | -53.38958 | -67.56314 | 35284 ft | 501 kts | 198° |
| 2026-04-29 15:43 | -53.45622 | -67.59435 | 35276 ft | 501 kts | 198° |
| 2026-04-29 15:44 | -53.52347 | -67.62595 | 35274 ft | 501 kts | 198° |
| 2026-04-29 15:44 | -53.59061 | -67.65760 | 35279 ft | 501 kts | 198° |
| 2026-04-29 15:45 | -53.65773 | -67.68935 | 35284 ft | 502 kts | 198° |
| 2026-04-29 15:45 | -53.72471 | -67.72110 | 34955 ft | 496 kts | 198° |
| 2026-04-29 15:45 | -53.75825 | -67.73612 | 33996 ft | 501 kts | 193° |
| 2026-04-29 15:46 | -53.79319 | -67.74163 | 32930 ft | 511 kts | 180° |
| 2026-04-29 15:46 | -53.82901 | -67.73912 | 31867 ft | 516 kts | 178° |
| 2026-04-29 15:46 | -53.86494 | -67.73561 | 30783 ft | 520 kts | 178° |
| 2026-04-29 15:46 | -53.90117 | -67.73195 | 29670 ft | 521 kts | 177° |
| 2026-04-29 15:47 | -53.93695 | -67.72826 | 28140 ft | 515 kts | 177° |
| 2026-04-29 15:47 | -53.97266 | -67.72452 | 26657 ft | 510 kts | 176° |
| 2026-04-29 15:47 | -54.00750 | -67.72089 | 25827 ft | 491 kts | 176° |
| 2026-04-29 15:47 | -54.04091 | -67.71733 | 25040 ft | 473 kts | 176° |
| 2026-04-29 15:48 | -54.07321 | -67.71388 | 24263 ft | 456 kts | 176° |
| 2026-04-29 15:48 | -54.10434 | -67.71052 | 23504 ft | 446 kts | 176° |
| 2026-04-29 15:48 | -54.13506 | -67.70719 | 22744 ft | 447 kts | 176° |
| 2026-04-29 15:48 | -54.16625 | -67.70381 | 21986 ft | 436 kts | 176° |
| 2026-04-29 15:49 | -54.19566 | -67.70061 | 21262 ft | 428 kts | 176° |
| 2026-04-29 15:49 | -54.22550 | -67.69734 | 20521 ft | 431 kts | 177° |
| 2026-04-29 15:49 | -54.25545 | -67.69409 | 19757 ft | 432 kts | 177° |
| 2026-04-29 15:49 | -54.28544 | -67.69084 | 18994 ft | 432 kts | 177° |
| 2026-04-29 15:50 | -54.31556 | -67.68750 | 18209 ft | 431 kts | 178° |
| 2026-04-29 15:50 | -54.34539 | -67.68431 | 17441 ft | 429 kts | 178° |
| 2026-04-29 15:50 | -54.37517 | -67.68112 | 16698 ft | 426 kts | 178° |
| 2026-04-29 15:50 | -54.40452 | -67.67795 | 15973 ft | 422 kts | 178° |
| 2026-04-29 15:51 | -54.43355 | -67.67479 | 15362 ft | 415 kts | 178° |
| 2026-04-29 15:51 | -54.46189 | -67.67167 | 14921 ft | 404 kts | 178° |
| 2026-04-29 15:51 | -54.48989 | -67.66845 | 14332 ft | 398 kts | 177° |
| 2026-04-29 15:51 | -54.51726 | -67.66529 | 13866 ft | 392 kts | 177° |
| 2026-04-29 15:52 | -54.54445 | -67.66217 | 13031 ft | 392 kts | 178° |
| 2026-04-29 15:52 | -54.57161 | -67.65911 | 12339 ft | 388 kts | 178° |
| 2026-04-29 15:52 | -54.59674 | -67.65630 | 11747 ft | 382 kts | 178° |
| 2026-04-29 15:52 | -54.61818 | -67.65392 | 11342 ft | 375 kts | 178° |
| 2026-04-29 15:53 | -54.64295 | -67.65116 | 11068 ft | 360 kts | 178° |
| 2026-04-29 15:53 | -54.66733 | -67.64863 | 10701 ft | 340 kts | 178° |
| 2026-04-29 15:53 | -54.68985 | -67.64629 | 10253 ft | 318 kts | 178° |
| 2026-04-29 15:53 | -54.71170 | -67.64387 | 9705 ft | 303 kts | 178° |
| 2026-04-29 15:54 | -54.73222 | -67.64162 | 9021 ft | 297 kts | 178° |
| 2026-04-29 15:54 | -54.75282 | -67.63947 | 8365 ft | 290 kts | 178° |
| 2026-04-29 15:54 | -54.77004 | -67.63761 | 7859 ft | 282 kts | 178° |
| 2026-04-29 15:54 | -54.78733 | -67.63845 | 7382 ft | 278 kts | 192° |
| 2026-04-29 15:55 | -54.80475 | -67.65212 | 7052 ft | 269 kts | 219° |
| 2026-04-29 15:55 | -54.81611 | -67.67672 | 6841 ft | 259 kts | 246° |
| 2026-04-29 15:55 | -54.81970 | -67.70610 | 6637 ft | 246 kts | 265° |
| 2026-04-29 15:55 | -54.82088 | -67.73520 | 6363 ft | 231 kts | 265° |
| 2026-04-29 15:56 | -54.82239 | -67.76170 | 6122 ft | 218 kts | 264° |
| 2026-04-29 15:56 | -54.82364 | -67.78746 | 5992 ft | 209 kts | 265° |
| 2026-04-29 15:56 | -54.82462 | -67.81185 | 5872 ft | 198 kts | 265° |
| 2026-04-29 15:56 | -54.82548 | -67.83471 | 5705 ft | 182 kts | 265° |
| 2026-04-29 15:57 | -54.82628 | -67.85595 | 5548 ft | 169 kts | 265° |
| 2026-04-29 15:57 | -54.82686 | -67.87166 | 5396 ft | 159 kts | 265° |
| 2026-04-29 15:57 | -54.82756 | -67.89033 | 5184 ft | 152 kts | 265° |
| 2026-04-29 15:57 | -54.82827 | -67.90829 | 4917 ft | 145 kts | 265° |
| 2026-04-29 15:58 | -54.82893 | -67.92548 | 4671 ft | 141 kts | 265° |
| 2026-04-29 15:58 | -54.82951 | -67.94082 | 4455 ft | 141 kts | 265° |
| 2026-04-29 15:58 | -54.83012 | -67.95599 | 4257 ft | 140 kts | 264° |
| 2026-04-29 15:58 | -54.83079 | -67.97285 | 4037 ft | 139 kts | 265° |
| 2026-04-29 15:59 | -54.83143 | -67.98963 | 3820 ft | 139 kts | 265° |
| 2026-04-29 15:59 | -54.83207 | -68.00612 | 3608 ft | 138 kts | 265° |
| 2026-04-29 15:59 | -54.83273 | -68.02280 | 3394 ft | 138 kts | 265° |
| 2026-04-29 15:59 | -54.83336 | -68.03921 | 3178 ft | 136 kts | 266° |
| 2026-04-29 16:00 | -54.83399 | -68.05562 | 2969 ft | 136 kts | 266° |
| 2026-04-29 16:00 | -54.83463 | -68.07198 | 2758 ft | 136 kts | 266° |
| 2026-04-29 16:00 | -54.83527 | -68.08832 | 2547 ft | 135 kts | 266° |
| 2026-04-29 16:00 | -54.83589 | -68.10457 | 2337 ft | 135 kts | 266° |
| 2026-04-29 16:01 | -54.83653 | -68.12095 | 2127 ft | 136 kts | 266° |
| 2026-04-29 16:01 | -54.83716 | -68.13719 | 1899 ft | 135 kts | 266° |
| 2026-04-29 16:01 | -54.83779 | -68.15352 | 1706 ft | 135 kts | 265° |
| 2026-04-29 16:01 | -54.83842 | -68.16975 | 1497 ft | 135 kts | 265° |
| 2026-04-29 16:02 | -54.83905 | -68.18592 | 1287 ft | 134 kts | 265° |
| 2026-04-29 16:02 | -54.83967 | -68.20205 | 1080 ft | 134 kts | 266° |
| 2026-04-29 16:02 | -54.84030 | -68.21815 | 872 ft | 133 kts | 265° |
| 2026-04-29 16:02 | -54.84089 | -68.23412 | 653 ft | 133 kts | 266° |
| 2026-04-29 16:03 | -54.84139 | -68.25010 | 472 ft | 133 kts | 263° |
| 2026-04-29 16:03 | -54.84205 | -68.26607 | 258 ft | 133 kts | 262° |
| 2026-04-29 16:03 | -54.84277 | -68.28200 | 99 ft | 131 kts | 266° |
| 2026-04-29 16:03 | -54.84335 | -68.29540 | 92 ft | 79 kts | 266° |
| 2026-04-29 16:04 | -54.84355 | -68.30076 | 87 ft | 32 kts | 269° |
| 2026-04-29 16:04 | -54.84364 | -68.30457 | 87 ft | 31 kts | 265° |
| 2026-04-29 16:04 | -54.84383 | -68.30826 | 90 ft | 30 kts | 265° |
| 2026-04-29 16:04 | -54.84387 | -68.31018 | 91 ft | 8 kts | 266° |
| 2026-04-29 16:05 | -54.84393 | -68.31134 | 93 ft | 11 kts | 264° |
| 2026-04-29 16:05 | -54.84386 | -68.31272 | 91 ft | 12 kts | 304° |
| 2026-04-29 16:05 | -54.84304 | -68.31316 | 91 ft | 15 kts | 355° |
| 2026-04-29 16:05 | -54.84207 | -68.31327 | 90 ft | 15 kts | 358° |
| 2026-04-29 16:06 | -54.84159 | -68.31331 | 90 ft | 0 kts | 358° |
| 2026-04-29 16:07 | -54.84158 | -68.31331 | 89 ft | 1 kts | 359° |
| 2026-04-29 16:07 | -54.84126 | -68.31306 | 88 ft | 12 kts | 39° |
| 2026-04-29 16:07 | -54.84060 | -68.31169 | 93 ft | 10 kts | 355° |
| 2026-04-29 16:07 | -54.84048 | -68.31173 | 89 ft | 0 kts | 350° |
| 2026-04-29 16:08 | -54.84034 | -68.31175 | 92 ft | 4 kts | 351° |
| 2026-04-29 16:08 | -54.84031 | -68.31176 | 91 ft | 0 kts | 348° |
| 2026-04-29 16:08 | -54.84030 | -68.31176 | 89 ft | 1 kts | 349° |
| 2026-04-29 16:08 | -54.84021 | -68.31180 | 89 ft | 0 kts | 348° |